<?xml version="1.0" encoding="UTF-8" standalone="no" ?>
<gpx xmlns="http://www.topografix.com/GPX/1/1" xmlns:xsi="http://www.w3.org/2001/XMLSchema-instance" xsi:schemaLocation="http://www.topografix.com/GPX/1/1 http://www.topografix.com/GPX/1/1/gpx.xsd" version="1.1" creator="VisuGPX - https://www.visugpx.com">
  <metadata>
    <name>Depuis le fort des Roches</name>
    <desc><![CDATA[Petit circuit depuis le fort des Roches avec beau final le long de la falaise]]></desc>
  </metadata>
  <trk>
    <name><![CDATA[B.iCycle Track from 2013-06-15_14.33.27]]></name>
    <trkseg>
      <trkpt lat="47.37392" lon="6.7813">
        <ele>599.87915</ele>
        <time>2013-06-15T12:36:28.987Z</time>
      </trkpt>
      <trkpt lat="47.37373" lon="6.78129">
        <ele>601.300781</ele>
        <time>2013-06-15T12:36:40.967Z</time>
      </trkpt>
      <trkpt lat="47.37354" lon="6.78126">
        <ele>603.562317</ele>
        <time>2013-06-15T12:36:55.967Z</time>
      </trkpt>
      <trkpt lat="47.37335" lon="6.78136">
        <ele>608.109497</ele>
        <time>2013-06-15T12:37:11.973Z</time>
      </trkpt>
      <trkpt lat="47.37321" lon="6.78154">
        <ele>610.853882</ele>
        <time>2013-06-15T12:37:23.965Z</time>
      </trkpt>
      <trkpt lat="47.37301" lon="6.78166">
        <ele>612.424377</ele>
        <time>2013-06-15T12:37:31.966Z</time>
      </trkpt>
      <trkpt lat="47.37286" lon="6.7818">
        <ele>615.59375</ele>
        <time>2013-06-15T12:37:45.965Z</time>
      </trkpt>
      <trkpt lat="47.37281" lon="6.78207">
        <ele>616.603638</ele>
        <time>2013-06-15T12:37:57.964Z</time>
      </trkpt>
      <trkpt lat="47.37273" lon="6.78233">
        <ele>616.853882</ele>
        <time>2013-06-15T12:38:07.966Z</time>
      </trkpt>
      <trkpt lat="47.37261" lon="6.78253">
        <ele>616.649109</ele>
        <time>2013-06-15T12:38:17.966Z</time>
      </trkpt>
      <trkpt lat="47.37246" lon="6.78272">
        <ele>617.755127</ele>
        <time>2013-06-15T12:38:27.964Z</time>
      </trkpt>
      <trkpt lat="47.37234" lon="6.78292">
        <ele>621.052734</ele>
        <time>2013-06-15T12:38:43.965Z</time>
      </trkpt>
      <trkpt lat="47.37217" lon="6.78305">
        <ele>625.101501</ele>
        <time>2013-06-15T12:38:55.965Z</time>
      </trkpt>
      <trkpt lat="47.37206" lon="6.78326">
        <ele>635.447388</ele>
        <time>2013-06-15T12:39:18.964Z</time>
      </trkpt>
      <trkpt lat="47.37194" lon="6.78348">
        <ele>643.577026</ele>
        <time>2013-06-15T12:39:34.964Z</time>
      </trkpt>
      <trkpt lat="47.37189" lon="6.78374">
        <ele>648.798279</ele>
        <time>2013-06-15T12:39:49.966Z</time>
      </trkpt>
      <trkpt lat="47.3719" lon="6.78402">
        <ele>653.881714</ele>
        <time>2013-06-15T12:40:05.965Z</time>
      </trkpt>
      <trkpt lat="47.37194" lon="6.78428">
        <ele>654.908752</ele>
        <time>2013-06-15T12:40:14.963Z</time>
      </trkpt>
      <trkpt lat="47.37194" lon="6.78457">
        <ele>655.601501</ele>
        <time>2013-06-15T12:40:23.965Z</time>
      </trkpt>
      <trkpt lat="47.37198" lon="6.78488">
        <ele>655.904236</ele>
        <time>2013-06-15T12:40:31.966Z</time>
      </trkpt>
      <trkpt lat="47.37198" lon="6.78516">
        <ele>655.95459</ele>
        <time>2013-06-15T12:40:37.966Z</time>
      </trkpt>
      <trkpt lat="47.37185" lon="6.78535">
        <ele>655.853088</ele>
        <time>2013-06-15T12:40:47.964Z</time>
      </trkpt>
      <trkpt lat="47.37171" lon="6.78516">
        <ele>656.046265</ele>
        <time>2013-06-15T12:40:58.965Z</time>
      </trkpt>
      <trkpt lat="47.37158" lon="6.78493">
        <ele>655.886047</ele>
        <time>2013-06-15T12:41:04.972Z</time>
      </trkpt>
      <trkpt lat="47.37147" lon="6.78467">
        <ele>656.35022</ele>
        <time>2013-06-15T12:41:10.975Z</time>
      </trkpt>
      <trkpt lat="47.37135" lon="6.78443">
        <ele>656.374207</ele>
        <time>2013-06-15T12:41:18.963Z</time>
      </trkpt>
      <trkpt lat="47.37124" lon="6.78421">
        <ele>657.042542</ele>
        <time>2013-06-15T12:41:27.973Z</time>
      </trkpt>
      <trkpt lat="47.37115" lon="6.78396">
        <ele>657.704346</ele>
        <time>2013-06-15T12:41:38.966Z</time>
      </trkpt>
      <trkpt lat="47.37104" lon="6.7837">
        <ele>658.166626</ele>
        <time>2013-06-15T12:41:47.965Z</time>
      </trkpt>
      <trkpt lat="47.37099" lon="6.78343">
        <ele>657.691711</ele>
        <time>2013-06-15T12:41:55.965Z</time>
      </trkpt>
      <trkpt lat="47.37095" lon="6.78315">
        <ele>658.300049</ele>
        <time>2013-06-15T12:42:05.965Z</time>
      </trkpt>
      <trkpt lat="47.37079" lon="6.78331">
        <ele>661.22522</ele>
        <time>2013-06-15T12:42:25.965Z</time>
      </trkpt>
      <trkpt lat="47.37075" lon="6.78358">
        <ele>663.21936</ele>
        <time>2013-06-15T12:42:34.965Z</time>
      </trkpt>
      <trkpt lat="47.37069" lon="6.78384">
        <ele>665.31897</ele>
        <time>2013-06-15T12:42:42.970Z</time>
      </trkpt>
      <trkpt lat="47.37066" lon="6.7841">
        <ele>669.513306</ele>
        <time>2013-06-15T12:42:51.968Z</time>
      </trkpt>
      <trkpt lat="47.3706" lon="6.78436">
        <ele>674.193848</ele>
        <time>2013-06-15T12:43:01.966Z</time>
      </trkpt>
      <trkpt lat="47.37056" lon="6.78463">
        <ele>677.294373</ele>
        <time>2013-06-15T12:43:09.965Z</time>
      </trkpt>
      <trkpt lat="47.37048" lon="6.78487">
        <ele>681.223267</ele>
        <time>2013-06-15T12:43:19.965Z</time>
      </trkpt>
      <trkpt lat="47.37038" lon="6.78464">
        <ele>686.202881</ele>
        <time>2013-06-15T12:43:34.966Z</time>
      </trkpt>
      <trkpt lat="47.37032" lon="6.78437">
        <ele>687.699036</ele>
        <time>2013-06-15T12:43:43.965Z</time>
      </trkpt>
      <trkpt lat="47.37029" lon="6.78411">
        <ele>687.485657</ele>
        <time>2013-06-15T12:43:50.966Z</time>
      </trkpt>
      <trkpt lat="47.37025" lon="6.78382">
        <ele>687.064514</ele>
        <time>2013-06-15T12:43:58.969Z</time>
      </trkpt>
      <trkpt lat="47.37022" lon="6.78353">
        <ele>685.847412</ele>
        <time>2013-06-15T12:44:06.965Z</time>
      </trkpt>
      <trkpt lat="47.37021" lon="6.78326">
        <ele>683.892517</ele>
        <time>2013-06-15T12:44:13.966Z</time>
      </trkpt>
      <trkpt lat="47.37022" lon="6.78298">
        <ele>681.787292</ele>
        <time>2013-06-15T12:44:20.966Z</time>
      </trkpt>
      <trkpt lat="47.37019" lon="6.7827">
        <ele>680.001587</ele>
        <time>2013-06-15T12:44:27.966Z</time>
      </trkpt>
      <trkpt lat="47.37017" lon="6.7824">
        <ele>678.778931</ele>
        <time>2013-06-15T12:44:34.969Z</time>
      </trkpt>
      <trkpt lat="47.37015" lon="6.78212">
        <ele>677.901489</ele>
        <time>2013-06-15T12:44:41.965Z</time>
      </trkpt>
      <trkpt lat="47.37011" lon="6.78185">
        <ele>676.764587</ele>
        <time>2013-06-15T12:44:51.262Z</time>
      </trkpt>
      <trkpt lat="47.37001" lon="6.78162">
        <ele>676.160522</ele>
        <time>2013-06-15T12:45:00.967Z</time>
      </trkpt>
      <trkpt lat="47.37" lon="6.78133">
        <ele>676.519714</ele>
        <time>2013-06-15T12:45:06.967Z</time>
      </trkpt>
      <trkpt lat="47.36999" lon="6.78161">
        <ele>676.183838</ele>
        <time>2013-06-15T12:46:09.966Z</time>
      </trkpt>
      <trkpt lat="47.36991" lon="6.78186">
        <ele>676.297729</ele>
        <time>2013-06-15T12:46:17.966Z</time>
      </trkpt>
      <trkpt lat="47.36982" lon="6.78211">
        <ele>676.93335</ele>
        <time>2013-06-15T12:46:26.969Z</time>
      </trkpt>
      <trkpt lat="47.36972" lon="6.78236">
        <ele>678.662598</ele>
        <time>2013-06-15T12:46:36.969Z</time>
      </trkpt>
      <trkpt lat="47.36968" lon="6.78264">
        <ele>680.555359</ele>
        <time>2013-06-15T12:46:46.968Z</time>
      </trkpt>
      <trkpt lat="47.36964" lon="6.78292">
        <ele>683.347046</ele>
        <time>2013-06-15T12:46:56.966Z</time>
      </trkpt>
      <trkpt lat="47.36958" lon="6.78317">
        <ele>686.277832</ele>
        <time>2013-06-15T12:47:08.970Z</time>
      </trkpt>
      <trkpt lat="47.36956" lon="6.78348">
        <ele>688.394104</ele>
        <time>2013-06-15T12:47:18.967Z</time>
      </trkpt>
      <trkpt lat="47.36952" lon="6.78376">
        <ele>690.229492</ele>
        <time>2013-06-15T12:47:26.967Z</time>
      </trkpt>
      <trkpt lat="47.36948" lon="6.78403">
        <ele>692.155701</ele>
        <time>2013-06-15T12:47:33.989Z</time>
      </trkpt>
      <trkpt lat="47.36945" lon="6.78433">
        <ele>694.147522</ele>
        <time>2013-06-15T12:47:41.966Z</time>
      </trkpt>
      <trkpt lat="47.36944" lon="6.78461">
        <ele>696.538391</ele>
        <time>2013-06-15T12:47:50.968Z</time>
      </trkpt>
      <trkpt lat="47.36943" lon="6.78489">
        <ele>698.368286</ele>
        <time>2013-06-15T12:47:58.966Z</time>
      </trkpt>
      <trkpt lat="47.36945" lon="6.78516">
        <ele>701.571106</ele>
        <time>2013-06-15T12:48:07.966Z</time>
      </trkpt>
      <trkpt lat="47.36942" lon="6.78543">
        <ele>704.859619</ele>
        <time>2013-06-15T12:48:16.967Z</time>
      </trkpt>
      <trkpt lat="47.36938" lon="6.7857">
        <ele>706.732483</ele>
        <time>2013-06-15T12:48:24.967Z</time>
      </trkpt>
      <trkpt lat="47.36932" lon="6.78596">
        <ele>707.940491</ele>
        <time>2013-06-15T12:48:32.968Z</time>
      </trkpt>
      <trkpt lat="47.36928" lon="6.78625">
        <ele>708.991272</ele>
        <time>2013-06-15T12:48:40.966Z</time>
      </trkpt>
      <trkpt lat="47.36927" lon="6.78653">
        <ele>710.49292</ele>
        <time>2013-06-15T12:48:51.966Z</time>
      </trkpt>
      <trkpt lat="47.36919" lon="6.78678">
        <ele>712.49762</ele>
        <time>2013-06-15T12:49:00.966Z</time>
      </trkpt>
      <trkpt lat="47.36903" lon="6.78662">
        <ele>715.093994</ele>
        <time>2013-06-15T12:49:17.967Z</time>
      </trkpt>
      <trkpt lat="47.36896" lon="6.78636">
        <ele>715.968872</ele>
        <time>2013-06-15T12:49:26.968Z</time>
      </trkpt>
      <trkpt lat="47.36894" lon="6.78609">
        <ele>716.119995</ele>
        <time>2013-06-15T12:49:36.966Z</time>
      </trkpt>
      <trkpt lat="47.36895" lon="6.78579">
        <ele>715.827209</ele>
        <time>2013-06-15T12:49:44.971Z</time>
      </trkpt>
      <trkpt lat="47.36899" lon="6.78553">
        <ele>714.961243</ele>
        <time>2013-06-15T12:49:52.970Z</time>
      </trkpt>
      <trkpt lat="47.36903" lon="6.78526">
        <ele>713.765625</ele>
        <time>2013-06-15T12:49:59.969Z</time>
      </trkpt>
      <trkpt lat="47.36903" lon="6.78497">
        <ele>712.628296</ele>
        <time>2013-06-15T12:50:06.968Z</time>
      </trkpt>
      <trkpt lat="47.36889" lon="6.7848">
        <ele>711.381104</ele>
        <time>2013-06-15T12:50:15.969Z</time>
      </trkpt>
      <trkpt lat="47.36874" lon="6.78498">
        <ele>711.339905</ele>
        <time>2013-06-15T12:50:24.968Z</time>
      </trkpt>
      <trkpt lat="47.3687" lon="6.78525">
        <ele>712.302185</ele>
        <time>2013-06-15T12:50:33.968Z</time>
      </trkpt>
      <trkpt lat="47.36868" lon="6.78552">
        <ele>713.219421</ele>
        <time>2013-06-15T12:50:42.967Z</time>
      </trkpt>
      <trkpt lat="47.36866" lon="6.7858">
        <ele>715.436218</ele>
        <time>2013-06-15T12:50:51.967Z</time>
      </trkpt>
      <trkpt lat="47.36865" lon="6.78606">
        <ele>718.29895</ele>
        <time>2013-06-15T12:51:02.971Z</time>
      </trkpt>
      <trkpt lat="47.36858" lon="6.78632">
        <ele>721.750427</ele>
        <time>2013-06-15T12:51:12.969Z</time>
      </trkpt>
      <trkpt lat="47.36851" lon="6.78659">
        <ele>725.401611</ele>
        <time>2013-06-15T12:51:22.968Z</time>
      </trkpt>
      <trkpt lat="47.36847" lon="6.78686">
        <ele>729.358704</ele>
        <time>2013-06-15T12:51:33.968Z</time>
      </trkpt>
      <trkpt lat="47.36841" lon="6.78714">
        <ele>732.603699</ele>
        <time>2013-06-15T12:51:44.981Z</time>
      </trkpt>
      <trkpt lat="47.36836" lon="6.7874">
        <ele>735.194214</ele>
        <time>2013-06-15T12:51:53.975Z</time>
      </trkpt>
      <trkpt lat="47.3683" lon="6.78767">
        <ele>737.533081</ele>
        <time>2013-06-15T12:52:03.975Z</time>
      </trkpt>
      <trkpt lat="47.36824" lon="6.78793">
        <ele>738.943909</ele>
        <time>2013-06-15T12:52:13.973Z</time>
      </trkpt>
      <trkpt lat="47.36816" lon="6.78819">
        <ele>739.776672</ele>
        <time>2013-06-15T12:52:23.968Z</time>
      </trkpt>
      <trkpt lat="47.36812" lon="6.78846">
        <ele>740.85907</ele>
        <time>2013-06-15T12:52:31.969Z</time>
      </trkpt>
      <trkpt lat="47.36806" lon="6.78873">
        <ele>742.482727</ele>
        <time>2013-06-15T12:52:42.971Z</time>
      </trkpt>
      <trkpt lat="47.36798" lon="6.78899">
        <ele>742.778076</ele>
        <time>2013-06-15T12:52:48.967Z</time>
      </trkpt>
      <trkpt lat="47.36792" lon="6.78925">
        <ele>742.461975</ele>
        <time>2013-06-15T12:52:56.968Z</time>
      </trkpt>
      <trkpt lat="47.36786" lon="6.7895">
        <ele>742.295715</ele>
        <time>2013-06-15T12:53:04.967Z</time>
      </trkpt>
      <trkpt lat="47.36778" lon="6.78976">
        <ele>742.181519</ele>
        <time>2013-06-15T12:53:13.968Z</time>
      </trkpt>
      <trkpt lat="47.36769" lon="6.79001">
        <ele>742.906677</ele>
        <time>2013-06-15T12:53:24.089Z</time>
      </trkpt>
      <trkpt lat="47.36761" lon="6.7903">
        <ele>745.016663</ele>
        <time>2013-06-15T12:53:37.003Z</time>
      </trkpt>
      <trkpt lat="47.36754" lon="6.79057">
        <ele>746.556519</ele>
        <time>2013-06-15T12:53:44.968Z</time>
      </trkpt>
      <trkpt lat="47.3675" lon="6.79083">
        <ele>749.27948</ele>
        <time>2013-06-15T12:53:54.968Z</time>
      </trkpt>
      <trkpt lat="47.36744" lon="6.79108">
        <ele>751.942322</ele>
        <time>2013-06-15T12:54:02.968Z</time>
      </trkpt>
      <trkpt lat="47.36739" lon="6.79135">
        <ele>754.737244</ele>
        <time>2013-06-15T12:54:11.971Z</time>
      </trkpt>
      <trkpt lat="47.36728" lon="6.79157">
        <ele>757.355896</ele>
        <time>2013-06-15T12:54:19.969Z</time>
      </trkpt>
      <trkpt lat="47.3672" lon="6.79181">
        <ele>759.639832</ele>
        <time>2013-06-15T12:54:27.969Z</time>
      </trkpt>
      <trkpt lat="47.36713" lon="6.79208">
        <ele>761.89679</ele>
        <time>2013-06-15T12:54:37.970Z</time>
      </trkpt>
      <trkpt lat="47.36705" lon="6.79235">
        <ele>763.291565</ele>
        <time>2013-06-15T12:54:45.968Z</time>
      </trkpt>
      <trkpt lat="47.36701" lon="6.79263">
        <ele>763.782043</ele>
        <time>2013-06-15T12:54:52.967Z</time>
      </trkpt>
      <trkpt lat="47.36697" lon="6.79289">
        <ele>764.559631</ele>
        <time>2013-06-15T12:54:59.968Z</time>
      </trkpt>
      <trkpt lat="47.36695" lon="6.79317">
        <ele>765.165344</ele>
        <time>2013-06-15T12:55:05.967Z</time>
      </trkpt>
      <trkpt lat="47.36692" lon="6.79347">
        <ele>766.15387</ele>
        <time>2013-06-15T12:55:11.966Z</time>
      </trkpt>
      <trkpt lat="47.36688" lon="6.79374">
        <ele>766.548279</ele>
        <time>2013-06-15T12:55:17.968Z</time>
      </trkpt>
      <trkpt lat="47.36686" lon="6.79403">
        <ele>766.460571</ele>
        <time>2013-06-15T12:55:22.968Z</time>
      </trkpt>
      <trkpt lat="47.36681" lon="6.79431">
        <ele>765.984497</ele>
        <time>2013-06-15T12:55:28.968Z</time>
      </trkpt>
      <trkpt lat="47.36673" lon="6.79457">
        <ele>765.557739</ele>
        <time>2013-06-15T12:55:34.968Z</time>
      </trkpt>
      <trkpt lat="47.36666" lon="6.79484">
        <ele>765.375122</ele>
        <time>2013-06-15T12:55:42.968Z</time>
      </trkpt>
      <trkpt lat="47.36656" lon="6.79508">
        <ele>765.713867</ele>
        <time>2013-06-15T12:55:48.970Z</time>
      </trkpt>
      <trkpt lat="47.36647" lon="6.79532">
        <ele>765.842041</ele>
        <time>2013-06-15T12:55:55.969Z</time>
      </trkpt>
      <trkpt lat="47.36637" lon="6.79557">
        <ele>766.302368</ele>
        <time>2013-06-15T12:56:03.968Z</time>
      </trkpt>
      <trkpt lat="47.36627" lon="6.7958">
        <ele>766.876953</ele>
        <time>2013-06-15T12:56:12.968Z</time>
      </trkpt>
      <trkpt lat="47.36618" lon="6.79606">
        <ele>768.150574</ele>
        <time>2013-06-15T12:56:20.968Z</time>
      </trkpt>
      <trkpt lat="47.36611" lon="6.79632">
        <ele>770.139221</ele>
        <time>2013-06-15T12:56:29.969Z</time>
      </trkpt>
      <trkpt lat="47.36602" lon="6.79658">
        <ele>772.393188</ele>
        <time>2013-06-15T12:56:39.968Z</time>
      </trkpt>
      <trkpt lat="47.36591" lon="6.79679">
        <ele>775.311218</ele>
        <time>2013-06-15T12:56:49.969Z</time>
      </trkpt>
      <trkpt lat="47.36575" lon="6.79693">
        <ele>778.648193</ele>
        <time>2013-06-15T12:57:01.972Z</time>
      </trkpt>
      <trkpt lat="47.36559" lon="6.79711">
        <ele>780.887268</ele>
        <time>2013-06-15T12:57:12.969Z</time>
      </trkpt>
      <trkpt lat="47.36544" lon="6.7973">
        <ele>782.353271</ele>
        <time>2013-06-15T12:57:20.969Z</time>
      </trkpt>
      <trkpt lat="47.36535" lon="6.79753">
        <ele>783.262939</ele>
        <time>2013-06-15T12:57:26.970Z</time>
      </trkpt>
      <trkpt lat="47.36527" lon="6.7978">
        <ele>783.484192</ele>
        <time>2013-06-15T12:57:32.088Z</time>
      </trkpt>
      <trkpt lat="47.36521" lon="6.79809">
        <ele>782.83905</ele>
        <time>2013-06-15T12:57:37.986Z</time>
      </trkpt>
      <trkpt lat="47.36517" lon="6.79839">
        <ele>781.421265</ele>
        <time>2013-06-15T12:57:43.971Z</time>
      </trkpt>
      <trkpt lat="47.36518" lon="6.79867">
        <ele>780.17749</ele>
        <time>2013-06-15T12:57:49.970Z</time>
      </trkpt>
      <trkpt lat="47.36518" lon="6.79895">
        <ele>778.939575</ele>
        <time>2013-06-15T12:57:55.970Z</time>
      </trkpt>
      <trkpt lat="47.36523" lon="6.79922">
        <ele>777.245667</ele>
        <time>2013-06-15T12:58:01.971Z</time>
      </trkpt>
      <trkpt lat="47.36525" lon="6.7995">
        <ele>774.946838</ele>
        <time>2013-06-15T12:58:08.974Z</time>
      </trkpt>
      <trkpt lat="47.36524" lon="6.79979">
        <ele>773.803833</ele>
        <time>2013-06-15T12:58:14.971Z</time>
      </trkpt>
      <trkpt lat="47.3652" lon="6.80007">
        <ele>772.8172</ele>
        <time>2013-06-15T12:58:22.967Z</time>
      </trkpt>
      <trkpt lat="47.36518" lon="6.80034">
        <ele>772.406494</ele>
        <time>2013-06-15T12:58:28.971Z</time>
      </trkpt>
      <trkpt lat="47.36517" lon="6.80064">
        <ele>772.478516</ele>
        <time>2013-06-15T12:58:32.970Z</time>
      </trkpt>
      <trkpt lat="47.36517" lon="6.80093">
        <ele>773.012573</ele>
        <time>2013-06-15T12:58:37.972Z</time>
      </trkpt>
      <trkpt lat="47.36519" lon="6.80121">
        <ele>773.54718</ele>
        <time>2013-06-15T12:58:42.972Z</time>
      </trkpt>
      <trkpt lat="47.36519" lon="6.80151">
        <ele>773.64856</ele>
        <time>2013-06-15T12:58:48.971Z</time>
      </trkpt>
      <trkpt lat="47.36519" lon="6.80183">
        <ele>774.237061</ele>
        <time>2013-06-15T12:58:53.972Z</time>
      </trkpt>
      <trkpt lat="47.36522" lon="6.80212">
        <ele>775.186768</ele>
        <time>2013-06-15T12:58:58.970Z</time>
      </trkpt>
      <trkpt lat="47.36521" lon="6.80239">
        <ele>776.163391</ele>
        <time>2013-06-15T12:59:03.971Z</time>
      </trkpt>
      <trkpt lat="47.36519" lon="6.80269">
        <ele>777.112427</ele>
        <time>2013-06-15T12:59:08.971Z</time>
      </trkpt>
      <trkpt lat="47.3652" lon="6.80299">
        <ele>777.222412</ele>
        <time>2013-06-15T12:59:13.972Z</time>
      </trkpt>
      <trkpt lat="47.36521" lon="6.8033">
        <ele>776.822266</ele>
        <time>2013-06-15T12:59:18.971Z</time>
      </trkpt>
      <trkpt lat="47.36521" lon="6.80358">
        <ele>776.278687</ele>
        <time>2013-06-15T12:59:22.970Z</time>
      </trkpt>
      <trkpt lat="47.36521" lon="6.80391">
        <ele>775.399048</ele>
        <time>2013-06-15T12:59:27.972Z</time>
      </trkpt>
      <trkpt lat="47.36521" lon="6.80424">
        <ele>774.905151</ele>
        <time>2013-06-15T12:59:32.969Z</time>
      </trkpt>
      <trkpt lat="47.36522" lon="6.80451">
        <ele>774.264221</ele>
        <time>2013-06-15T12:59:36.970Z</time>
      </trkpt>
      <trkpt lat="47.36523" lon="6.80481">
        <ele>773.736938</ele>
        <time>2013-06-15T12:59:40.970Z</time>
      </trkpt>
      <trkpt lat="47.36522" lon="6.80512">
        <ele>773.384888</ele>
        <time>2013-06-15T12:59:44.968Z</time>
      </trkpt>
      <trkpt lat="47.3652" lon="6.80544">
        <ele>773.137207</ele>
        <time>2013-06-15T12:59:48.969Z</time>
      </trkpt>
      <trkpt lat="47.36518" lon="6.80576">
        <ele>772.521118</ele>
        <time>2013-06-15T12:59:52.970Z</time>
      </trkpt>
      <trkpt lat="47.36516" lon="6.80606">
        <ele>771.798218</ele>
        <time>2013-06-15T12:59:56.973Z</time>
      </trkpt>
      <trkpt lat="47.36515" lon="6.80635">
        <ele>771.300293</ele>
        <time>2013-06-15T13:00:01.074Z</time>
      </trkpt>
      <trkpt lat="47.36514" lon="6.80665">
        <ele>770.660278</ele>
        <time>2013-06-15T13:00:04.971Z</time>
      </trkpt>
      <trkpt lat="47.36515" lon="6.80695">
        <ele>770.438782</ele>
        <time>2013-06-15T13:00:08.971Z</time>
      </trkpt>
      <trkpt lat="47.36513" lon="6.80722">
        <ele>770.604553</ele>
        <time>2013-06-15T13:00:12.970Z</time>
      </trkpt>
      <trkpt lat="47.36511" lon="6.80752">
        <ele>770.584534</ele>
        <time>2013-06-15T13:00:16.970Z</time>
      </trkpt>
      <trkpt lat="47.36516" lon="6.80783">
        <ele>770.354919</ele>
        <time>2013-06-15T13:00:20.972Z</time>
      </trkpt>
      <trkpt lat="47.36515" lon="6.80813">
        <ele>770.260742</ele>
        <time>2013-06-15T13:00:24.970Z</time>
      </trkpt>
      <trkpt lat="47.36515" lon="6.80844">
        <ele>770.324524</ele>
        <time>2013-06-15T13:00:28.974Z</time>
      </trkpt>
      <trkpt lat="47.36513" lon="6.80877">
        <ele>770.31311</ele>
        <time>2013-06-15T13:00:32.970Z</time>
      </trkpt>
      <trkpt lat="47.36513" lon="6.80908">
        <ele>770.301147</ele>
        <time>2013-06-15T13:00:36.971Z</time>
      </trkpt>
      <trkpt lat="47.3652" lon="6.80933">
        <ele>770.359436</ele>
        <time>2013-06-15T13:00:39.971Z</time>
      </trkpt>
      <trkpt lat="47.36523" lon="6.80963">
        <ele>770.560547</ele>
        <time>2013-06-15T13:00:43.970Z</time>
      </trkpt>
      <trkpt lat="47.3652" lon="6.80992">
        <ele>771.093262</ele>
        <time>2013-06-15T13:00:47.973Z</time>
      </trkpt>
      <trkpt lat="47.36517" lon="6.81023">
        <ele>771.748962</ele>
        <time>2013-06-15T13:00:51.972Z</time>
      </trkpt>
      <trkpt lat="47.36514" lon="6.8105">
        <ele>772.060669</ele>
        <time>2013-06-15T13:00:54.970Z</time>
      </trkpt>
      <trkpt lat="47.36509" lon="6.81082">
        <ele>772.22113</ele>
        <time>2013-06-15T13:00:58.972Z</time>
      </trkpt>
      <trkpt lat="47.36502" lon="6.81113">
        <ele>772.845093</ele>
        <time>2013-06-15T13:01:02.971Z</time>
      </trkpt>
      <trkpt lat="47.36492" lon="6.8114">
        <ele>773.628967</ele>
        <time>2013-06-15T13:01:07.972Z</time>
      </trkpt>
      <trkpt lat="47.36482" lon="6.81163">
        <ele>774.042419</ele>
        <time>2013-06-15T13:01:11.971Z</time>
      </trkpt>
      <trkpt lat="47.36474" lon="6.81187">
        <ele>774.425354</ele>
        <time>2013-06-15T13:01:16.972Z</time>
      </trkpt>
      <trkpt lat="47.36465" lon="6.81213">
        <ele>775.132507</ele>
        <time>2013-06-15T13:01:21.971Z</time>
      </trkpt>
      <trkpt lat="47.36456" lon="6.8124">
        <ele>775.863403</ele>
        <time>2013-06-15T13:01:26.971Z</time>
      </trkpt>
      <trkpt lat="47.36447" lon="6.81267">
        <ele>776.37384</ele>
        <time>2013-06-15T13:01:31.971Z</time>
      </trkpt>
      <trkpt lat="47.36439" lon="6.81295">
        <ele>776.420227</ele>
        <time>2013-06-15T13:01:36.971Z</time>
      </trkpt>
      <trkpt lat="47.3643" lon="6.81318">
        <ele>776.663452</ele>
        <time>2013-06-15T13:01:40.971Z</time>
      </trkpt>
      <trkpt lat="47.3642" lon="6.81347">
        <ele>776.857178</ele>
        <time>2013-06-15T13:01:45.970Z</time>
      </trkpt>
      <trkpt lat="47.36415" lon="6.81376">
        <ele>776.861511</ele>
        <time>2013-06-15T13:01:50.970Z</time>
      </trkpt>
      <trkpt lat="47.36409" lon="6.81403">
        <ele>776.847473</ele>
        <time>2013-06-15T13:01:55.971Z</time>
      </trkpt>
      <trkpt lat="47.36405" lon="6.81429">
        <ele>776.730957</ele>
        <time>2013-06-15T13:02:01.972Z</time>
      </trkpt>
      <trkpt lat="47.36395" lon="6.81452">
        <ele>775.994202</ele>
        <time>2013-06-15T13:02:06.971Z</time>
      </trkpt>
      <trkpt lat="47.36386" lon="6.81475">
        <ele>774.909363</ele>
        <time>2013-06-15T13:02:11.984Z</time>
      </trkpt>
      <trkpt lat="47.36381" lon="6.81504">
        <ele>774.319214</ele>
        <time>2013-06-15T13:02:15.973Z</time>
      </trkpt>
      <trkpt lat="47.36374" lon="6.81533">
        <ele>773.812378</ele>
        <time>2013-06-15T13:02:20.971Z</time>
      </trkpt>
      <trkpt lat="47.36362" lon="6.81559">
        <ele>773.399353</ele>
        <time>2013-06-15T13:02:26.972Z</time>
      </trkpt>
      <trkpt lat="47.36352" lon="6.81583">
        <ele>773.184387</ele>
        <time>2013-06-15T13:02:31.971Z</time>
      </trkpt>
      <trkpt lat="47.36334" lon="6.81601">
        <ele>773.500854</ele>
        <time>2013-06-15T13:02:36.974Z</time>
      </trkpt>
      <trkpt lat="47.36317" lon="6.81614">
        <ele>774.245483</ele>
        <time>2013-06-15T13:02:39.975Z</time>
      </trkpt>
      <trkpt lat="47.36304" lon="6.81635">
        <ele>775.873596</ele>
        <time>2013-06-15T13:02:44.973Z</time>
      </trkpt>
      <trkpt lat="47.36293" lon="6.81657">
        <ele>777.53717</ele>
        <time>2013-06-15T13:02:50.971Z</time>
      </trkpt>
      <trkpt lat="47.36283" lon="6.81682">
        <ele>779.793457</ele>
        <time>2013-06-15T13:02:58.973Z</time>
      </trkpt>
      <trkpt lat="47.36278" lon="6.81709">
        <ele>782.036743</ele>
        <time>2013-06-15T13:03:04.971Z</time>
      </trkpt>
      <trkpt lat="47.36272" lon="6.81739">
        <ele>783.921692</ele>
        <time>2013-06-15T13:03:11.973Z</time>
      </trkpt>
      <trkpt lat="47.36266" lon="6.81768">
        <ele>785.046814</ele>
        <time>2013-06-15T13:03:17.972Z</time>
      </trkpt>
      <trkpt lat="47.36258" lon="6.81793">
        <ele>786.369385</ele>
        <time>2013-06-15T13:03:24.972Z</time>
      </trkpt>
      <trkpt lat="47.36248" lon="6.81818">
        <ele>787.253296</ele>
        <time>2013-06-15T13:03:30.971Z</time>
      </trkpt>
      <trkpt lat="47.36239" lon="6.81845">
        <ele>788.269836</ele>
        <time>2013-06-15T13:03:35.971Z</time>
      </trkpt>
      <trkpt lat="47.36228" lon="6.81871">
        <ele>788.180664</ele>
        <time>2013-06-15T13:03:41.970Z</time>
      </trkpt>
      <trkpt lat="47.36221" lon="6.81899">
        <ele>787.532654</ele>
        <time>2013-06-15T13:03:47.972Z</time>
      </trkpt>
      <trkpt lat="47.3621" lon="6.81926">
        <ele>787.517456</ele>
        <time>2013-06-15T13:03:53.978Z</time>
      </trkpt>
      <trkpt lat="47.362" lon="6.81949">
        <ele>787.74939</ele>
        <time>2013-06-15T13:03:57.971Z</time>
      </trkpt>
      <trkpt lat="47.36191" lon="6.81975">
        <ele>787.932556</ele>
        <time>2013-06-15T13:04:03.971Z</time>
      </trkpt>
      <trkpt lat="47.36178" lon="6.81994">
        <ele>789.164307</ele>
        <time>2013-06-15T13:04:10.989Z</time>
      </trkpt>
      <trkpt lat="47.3617" lon="6.82019">
        <ele>799.554871</ele>
        <time>2013-06-15T13:05:40.972Z</time>
      </trkpt>
      <trkpt lat="47.36163" lon="6.82046">
        <ele>800.423645</ele>
        <time>2013-06-15T13:05:46.974Z</time>
      </trkpt>
      <trkpt lat="47.36152" lon="6.82071">
        <ele>800.616089</ele>
        <time>2013-06-15T13:05:52.974Z</time>
      </trkpt>
      <trkpt lat="47.36143" lon="6.82098">
        <ele>801.23938</ele>
        <time>2013-06-15T13:05:59.974Z</time>
      </trkpt>
      <trkpt lat="47.36133" lon="6.82122">
        <ele>802.567078</ele>
        <time>2013-06-15T13:06:05.974Z</time>
      </trkpt>
      <trkpt lat="47.3613" lon="6.82149">
        <ele>803.741577</ele>
        <time>2013-06-15T13:06:10.974Z</time>
      </trkpt>
      <trkpt lat="47.36124" lon="6.8218">
        <ele>804.956482</ele>
        <time>2013-06-15T13:06:17.031Z</time>
      </trkpt>
      <trkpt lat="47.36121" lon="6.82208">
        <ele>805.53833</ele>
        <time>2013-06-15T13:06:22.975Z</time>
      </trkpt>
      <trkpt lat="47.36115" lon="6.82237">
        <ele>806.10553</ele>
        <time>2013-06-15T13:06:29.975Z</time>
      </trkpt>
      <trkpt lat="47.3611" lon="6.82263">
        <ele>806.491211</ele>
        <time>2013-06-15T13:06:35.973Z</time>
      </trkpt>
      <trkpt lat="47.36104" lon="6.82293">
        <ele>806.953796</ele>
        <time>2013-06-15T13:06:42.975Z</time>
      </trkpt>
      <trkpt lat="47.36099" lon="6.82321">
        <ele>807.418945</ele>
        <time>2013-06-15T13:06:48.974Z</time>
      </trkpt>
      <trkpt lat="47.36096" lon="6.82347">
        <ele>808.348511</ele>
        <time>2013-06-15T13:06:53.973Z</time>
      </trkpt>
      <trkpt lat="47.36093" lon="6.82377">
        <ele>809.180176</ele>
        <time>2013-06-15T13:07:00.975Z</time>
      </trkpt>
      <trkpt lat="47.36088" lon="6.82406">
        <ele>809.058594</ele>
        <time>2013-06-15T13:07:07.973Z</time>
      </trkpt>
      <trkpt lat="47.36086" lon="6.82434">
        <ele>808.994568</ele>
        <time>2013-06-15T13:07:14.976Z</time>
      </trkpt>
      <trkpt lat="47.36082" lon="6.82464">
        <ele>810.002014</ele>
        <time>2013-06-15T13:07:21.975Z</time>
      </trkpt>
      <trkpt lat="47.36076" lon="6.82491">
        <ele>811.613647</ele>
        <time>2013-06-15T13:07:28.974Z</time>
      </trkpt>
      <trkpt lat="47.36075" lon="6.82518">
        <ele>812.583191</ele>
        <time>2013-06-15T13:07:33.976Z</time>
      </trkpt>
      <trkpt lat="47.36075" lon="6.82548">
        <ele>813.619507</ele>
        <time>2013-06-15T13:07:39.974Z</time>
      </trkpt>
      <trkpt lat="47.36073" lon="6.82576">
        <ele>814.697937</ele>
        <time>2013-06-15T13:07:44.971Z</time>
      </trkpt>
      <trkpt lat="47.36072" lon="6.82606">
        <ele>815.49884</ele>
        <time>2013-06-15T13:07:50.973Z</time>
      </trkpt>
      <trkpt lat="47.36072" lon="6.82636">
        <ele>816.462524</ele>
        <time>2013-06-15T13:07:57.973Z</time>
      </trkpt>
      <trkpt lat="47.36081" lon="6.82611">
        <ele>818.015869</ele>
        <time>2013-06-15T13:08:10.974Z</time>
      </trkpt>
      <trkpt lat="47.36085" lon="6.82582">
        <ele>819.106628</ele>
        <time>2013-06-15T13:08:20.974Z</time>
      </trkpt>
      <trkpt lat="47.36086" lon="6.82554">
        <ele>819.373962</ele>
        <time>2013-06-15T13:08:27.973Z</time>
      </trkpt>
      <trkpt lat="47.36092" lon="6.8258">
        <ele>823.251587</ele>
        <time>2013-06-15T13:08:52.973Z</time>
      </trkpt>
      <trkpt lat="47.36095" lon="6.82608">
        <ele>826.190308</ele>
        <time>2013-06-15T13:09:12.973Z</time>
      </trkpt>
      <trkpt lat="47.36093" lon="6.82636">
        <ele>828.190552</ele>
        <time>2013-06-15T13:09:22.975Z</time>
      </trkpt>
      <trkpt lat="47.36093" lon="6.82663">
        <ele>828.908264</ele>
        <time>2013-06-15T13:09:32.973Z</time>
      </trkpt>
      <trkpt lat="47.36092" lon="6.82692">
        <ele>829.171082</ele>
        <time>2013-06-15T13:09:43.972Z</time>
      </trkpt>
      <trkpt lat="47.36102" lon="6.82668">
        <ele>830.260864</ele>
        <time>2013-06-15T13:10:01.973Z</time>
      </trkpt>
      <trkpt lat="47.36119" lon="6.82677">
        <ele>836.669739</ele>
        <time>2013-06-15T13:10:43.976Z</time>
      </trkpt>
      <trkpt lat="47.36135" lon="6.82694">
        <ele>837.609009</ele>
        <time>2013-06-15T13:10:52.974Z</time>
      </trkpt>
      <trkpt lat="47.36142" lon="6.82723">
        <ele>838.063232</ele>
        <time>2013-06-15T13:10:58.974Z</time>
      </trkpt>
      <trkpt lat="47.36144" lon="6.82751">
        <ele>837.761414</ele>
        <time>2013-06-15T13:11:03.973Z</time>
      </trkpt>
      <trkpt lat="47.36147" lon="6.82782">
        <ele>837.652344</ele>
        <time>2013-06-15T13:11:08.974Z</time>
      </trkpt>
      <trkpt lat="47.36145" lon="6.82811">
        <ele>837.116699</ele>
        <time>2013-06-15T13:11:13.974Z</time>
      </trkpt>
      <trkpt lat="47.36151" lon="6.82841">
        <ele>836.166138</ele>
        <time>2013-06-15T13:11:18.974Z</time>
      </trkpt>
      <trkpt lat="47.36148" lon="6.82867">
        <ele>835.842712</ele>
        <time>2013-06-15T13:11:22.975Z</time>
      </trkpt>
      <trkpt lat="47.36145" lon="6.82895">
        <ele>835.757202</ele>
        <time>2013-06-15T13:11:26.975Z</time>
      </trkpt>
      <trkpt lat="47.36146" lon="6.82921">
        <ele>835.420044</ele>
        <time>2013-06-15T13:11:30.975Z</time>
      </trkpt>
      <trkpt lat="47.36147" lon="6.82954">
        <ele>834.8255</ele>
        <time>2013-06-15T13:11:34.976Z</time>
      </trkpt>
      <trkpt lat="47.3615" lon="6.82987">
        <ele>834.389404</ele>
        <time>2013-06-15T13:11:38.976Z</time>
      </trkpt>
      <trkpt lat="47.36153" lon="6.83015">
        <ele>833.862976</ele>
        <time>2013-06-15T13:11:42.974Z</time>
      </trkpt>
      <trkpt lat="47.36156" lon="6.83046">
        <ele>832.960022</ele>
        <time>2013-06-15T13:11:48.974Z</time>
      </trkpt>
      <trkpt lat="47.36153" lon="6.83076">
        <ele>832.251343</ele>
        <time>2013-06-15T13:11:53.973Z</time>
      </trkpt>
      <trkpt lat="47.36158" lon="6.83102">
        <ele>831.682495</ele>
        <time>2013-06-15T13:11:58.975Z</time>
      </trkpt>
      <trkpt lat="47.36158" lon="6.8313">
        <ele>831.943848</ele>
        <time>2013-06-15T13:12:02.974Z</time>
      </trkpt>
      <trkpt lat="47.36143" lon="6.83148">
        <ele>832.541382</ele>
        <time>2013-06-15T13:12:10.974Z</time>
      </trkpt>
      <trkpt lat="47.36131" lon="6.8317">
        <ele>833.506775</ele>
        <time>2013-06-15T13:12:15.974Z</time>
      </trkpt>
      <trkpt lat="47.36118" lon="6.83191">
        <ele>834.388977</ele>
        <time>2013-06-15T13:12:21.974Z</time>
      </trkpt>
      <trkpt lat="47.36108" lon="6.83216">
        <ele>835.86145</ele>
        <time>2013-06-15T13:12:32.974Z</time>
      </trkpt>
      <trkpt lat="47.36104" lon="6.83245">
        <ele>837.146912</ele>
        <time>2013-06-15T13:12:41.974Z</time>
      </trkpt>
      <trkpt lat="47.36111" lon="6.83274">
        <ele>837.856262</ele>
        <time>2013-06-15T13:12:46.976Z</time>
      </trkpt>
      <trkpt lat="47.36117" lon="6.83303">
        <ele>839.015747</ele>
        <time>2013-06-15T13:12:51.974Z</time>
      </trkpt>
      <trkpt lat="47.3611" lon="6.83331">
        <ele>839.448486</ele>
        <time>2013-06-15T13:12:56.974Z</time>
      </trkpt>
      <trkpt lat="47.36111" lon="6.83361">
        <ele>839.563171</ele>
        <time>2013-06-15T13:13:01.974Z</time>
      </trkpt>
      <trkpt lat="47.36111" lon="6.83391">
        <ele>839.322632</ele>
        <time>2013-06-15T13:13:05.974Z</time>
      </trkpt>
      <trkpt lat="47.36111" lon="6.83418">
        <ele>839.026428</ele>
        <time>2013-06-15T13:13:09.976Z</time>
      </trkpt>
      <trkpt lat="47.36116" lon="6.83444">
        <ele>838.563782</ele>
        <time>2013-06-15T13:13:13.976Z</time>
      </trkpt>
      <trkpt lat="47.3612" lon="6.83476">
        <ele>837.910217</ele>
        <time>2013-06-15T13:13:18.976Z</time>
      </trkpt>
      <trkpt lat="47.36118" lon="6.83506">
        <ele>837.289124</ele>
        <time>2013-06-15T13:13:23.976Z</time>
      </trkpt>
      <trkpt lat="47.36117" lon="6.83535">
        <ele>836.59375</ele>
        <time>2013-06-15T13:13:29.977Z</time>
      </trkpt>
      <trkpt lat="47.36112" lon="6.83566">
        <ele>835.404236</ele>
        <time>2013-06-15T13:13:35.977Z</time>
      </trkpt>
      <trkpt lat="47.3611" lon="6.83597">
        <ele>834.415405</ele>
        <time>2013-06-15T13:13:40.975Z</time>
      </trkpt>
      <trkpt lat="47.3611" lon="6.83626">
        <ele>833.197449</ele>
        <time>2013-06-15T13:13:45.976Z</time>
      </trkpt>
      <trkpt lat="47.36112" lon="6.83659">
        <ele>831.704285</ele>
        <time>2013-06-15T13:13:50.975Z</time>
      </trkpt>
      <trkpt lat="47.36111" lon="6.8369">
        <ele>830.648926</ele>
        <time>2013-06-15T13:13:55.976Z</time>
      </trkpt>
      <trkpt lat="47.36108" lon="6.83717">
        <ele>830.155029</ele>
        <time>2013-06-15T13:13:59.975Z</time>
      </trkpt>
      <trkpt lat="47.36106" lon="6.83747">
        <ele>828.840515</ele>
        <time>2013-06-15T13:14:04.976Z</time>
      </trkpt>
      <trkpt lat="47.36108" lon="6.83777">
        <ele>827.736877</ele>
        <time>2013-06-15T13:14:10.974Z</time>
      </trkpt>
      <trkpt lat="47.36113" lon="6.83805">
        <ele>826.512329</ele>
        <time>2013-06-15T13:14:15.975Z</time>
      </trkpt>
      <trkpt lat="47.36118" lon="6.83837">
        <ele>825.164856</ele>
        <time>2013-06-15T13:14:21.976Z</time>
      </trkpt>
      <trkpt lat="47.36119" lon="6.83869">
        <ele>824.0401</ele>
        <time>2013-06-15T13:14:26.975Z</time>
      </trkpt>
      <trkpt lat="47.36113" lon="6.839">
        <ele>823.135803</ele>
        <time>2013-06-15T13:14:31.975Z</time>
      </trkpt>
      <trkpt lat="47.36097" lon="6.83923">
        <ele>822.5047</ele>
        <time>2013-06-15T13:14:36.975Z</time>
      </trkpt>
      <trkpt lat="47.36091" lon="6.83955">
        <ele>821.835754</ele>
        <time>2013-06-15T13:14:40.976Z</time>
      </trkpt>
      <trkpt lat="47.36095" lon="6.83987">
        <ele>821.591858</ele>
        <time>2013-06-15T13:14:44.975Z</time>
      </trkpt>
      <trkpt lat="47.36101" lon="6.84016">
        <ele>821.438965</ele>
        <time>2013-06-15T13:14:48.975Z</time>
      </trkpt>
      <trkpt lat="47.36099" lon="6.84044">
        <ele>821.558655</ele>
        <time>2013-06-15T13:14:54.975Z</time>
      </trkpt>
      <trkpt lat="47.36098" lon="6.84071">
        <ele>821.156433</ele>
        <time>2013-06-15T13:15:09.978Z</time>
      </trkpt>
      <trkpt lat="47.36079" lon="6.84067">
        <ele>829.75885</ele>
        <time>2013-06-15T13:16:11.972Z</time>
      </trkpt>
      <trkpt lat="47.3606" lon="6.84072">
        <ele>827.500244</ele>
        <time>2013-06-15T13:16:17.976Z</time>
      </trkpt>
      <trkpt lat="47.36041" lon="6.84085">
        <ele>825.862244</ele>
        <time>2013-06-15T13:16:21.976Z</time>
      </trkpt>
      <trkpt lat="47.3602" lon="6.84097">
        <ele>824.89447</ele>
        <time>2013-06-15T13:16:24.975Z</time>
      </trkpt>
      <trkpt lat="47.36001" lon="6.84098">
        <ele>823.720032</ele>
        <time>2013-06-15T13:16:27.976Z</time>
      </trkpt>
      <trkpt lat="47.35981" lon="6.84095">
        <ele>821.514771</ele>
        <time>2013-06-15T13:16:32.976Z</time>
      </trkpt>
      <trkpt lat="47.35961" lon="6.84096">
        <ele>817.988708</ele>
        <time>2013-06-15T13:16:38.978Z</time>
      </trkpt>
      <trkpt lat="47.35938" lon="6.84092">
        <ele>814.827148</ele>
        <time>2013-06-15T13:16:43.975Z</time>
      </trkpt>
      <trkpt lat="47.3592" lon="6.84089">
        <ele>811.766052</ele>
        <time>2013-06-15T13:16:48.978Z</time>
      </trkpt>
      <trkpt lat="47.35902" lon="6.84082">
        <ele>807.977966</ele>
        <time>2013-06-15T13:16:54.976Z</time>
      </trkpt>
      <trkpt lat="47.35886" lon="6.84065">
        <ele>804.803223</ele>
        <time>2013-06-15T13:17:03.976Z</time>
      </trkpt>
      <trkpt lat="47.35866" lon="6.84059">
        <ele>803.384583</ele>
        <time>2013-06-15T13:17:11.976Z</time>
      </trkpt>
      <trkpt lat="47.35847" lon="6.84053">
        <ele>802.549988</ele>
        <time>2013-06-15T13:17:16.976Z</time>
      </trkpt>
      <trkpt lat="47.35828" lon="6.84046">
        <ele>802.255249</ele>
        <time>2013-06-15T13:17:22.981Z</time>
      </trkpt>
      <trkpt lat="47.35808" lon="6.84036">
        <ele>802.013306</ele>
        <time>2013-06-15T13:17:29.976Z</time>
      </trkpt>
      <trkpt lat="47.35801" lon="6.8401">
        <ele>801.857483</ele>
        <time>2013-06-15T13:17:35.976Z</time>
      </trkpt>
      <trkpt lat="47.35788" lon="6.83988">
        <ele>802.195496</ele>
        <time>2013-06-15T13:17:40.976Z</time>
      </trkpt>
      <trkpt lat="47.35774" lon="6.8397">
        <ele>802.150696</ele>
        <time>2013-06-15T13:17:43.979Z</time>
      </trkpt>
      <trkpt lat="47.35763" lon="6.83948">
        <ele>802.065735</ele>
        <time>2013-06-15T13:17:46.976Z</time>
      </trkpt>
      <trkpt lat="47.35758" lon="6.83913">
        <ele>801.896362</ele>
        <time>2013-06-15T13:17:49.976Z</time>
      </trkpt>
      <trkpt lat="47.35758" lon="6.83886">
        <ele>802.008606</ele>
        <time>2013-06-15T13:17:52.976Z</time>
      </trkpt>
      <trkpt lat="47.35759" lon="6.83853">
        <ele>801.827026</ele>
        <time>2013-06-15T13:17:57.975Z</time>
      </trkpt>
      <trkpt lat="47.35763" lon="6.83823">
        <ele>801.490723</ele>
        <time>2013-06-15T13:18:01.976Z</time>
      </trkpt>
      <trkpt lat="47.35768" lon="6.83796">
        <ele>800.982483</ele>
        <time>2013-06-15T13:18:05.975Z</time>
      </trkpt>
      <trkpt lat="47.35772" lon="6.83767">
        <ele>800.424561</ele>
        <time>2013-06-15T13:18:12.975Z</time>
      </trkpt>
      <trkpt lat="47.35774" lon="6.83737">
        <ele>800.503174</ele>
        <time>2013-06-15T13:18:19.976Z</time>
      </trkpt>
      <trkpt lat="47.35776" lon="6.83708">
        <ele>801.000122</ele>
        <time>2013-06-15T13:18:27.975Z</time>
      </trkpt>
      <trkpt lat="47.35775" lon="6.83679">
        <ele>802.434021</ele>
        <time>2013-06-15T13:18:36.977Z</time>
      </trkpt>
      <trkpt lat="47.35776" lon="6.83651">
        <ele>803.388367</ele>
        <time>2013-06-15T13:18:45.976Z</time>
      </trkpt>
      <trkpt lat="47.35763" lon="6.83632">
        <ele>807.131531</ele>
        <time>2013-06-15T13:19:08.976Z</time>
      </trkpt>
      <trkpt lat="47.35747" lon="6.83616">
        <ele>807.787415</ele>
        <time>2013-06-15T13:19:16.974Z</time>
      </trkpt>
      <trkpt lat="47.3573" lon="6.836">
        <ele>807.83606</ele>
        <time>2013-06-15T13:19:21.976Z</time>
      </trkpt>
      <trkpt lat="47.35718" lon="6.83579">
        <ele>807.759521</ele>
        <time>2013-06-15T13:19:25.976Z</time>
      </trkpt>
      <trkpt lat="47.35705" lon="6.8355">
        <ele>807.41626</ele>
        <time>2013-06-15T13:19:29.978Z</time>
      </trkpt>
      <trkpt lat="47.35691" lon="6.83517">
        <ele>806.968384</ele>
        <time>2013-06-15T13:19:33.049Z</time>
      </trkpt>
      <trkpt lat="47.35676" lon="6.83482">
        <ele>806.38092</ele>
        <time>2013-06-15T13:19:36.029Z</time>
      </trkpt>
      <trkpt lat="47.35661" lon="6.83441">
        <ele>805.706543</ele>
        <time>2013-06-15T13:19:39.041Z</time>
      </trkpt>
      <trkpt lat="47.35646" lon="6.83401">
        <ele>804.831299</ele>
        <time>2013-06-15T13:19:42.043Z</time>
      </trkpt>
      <trkpt lat="47.35642" lon="6.83367">
        <ele>803.816711</ele>
        <time>2013-06-15T13:19:45.032Z</time>
      </trkpt>
      <trkpt lat="47.35631" lon="6.83327">
        <ele>802.708496</ele>
        <time>2013-06-15T13:19:48.032Z</time>
      </trkpt>
      <trkpt lat="47.35622" lon="6.83298">
        <ele>801.930115</ele>
        <time>2013-06-15T13:19:50.037Z</time>
      </trkpt>
      <trkpt lat="47.35612" lon="6.8327">
        <ele>800.546692</ele>
        <time>2013-06-15T13:19:53.028Z</time>
      </trkpt>
      <trkpt lat="47.35593" lon="6.8327">
        <ele>795.870911</ele>
        <time>2013-06-15T13:20:02.065Z</time>
      </trkpt>
      <trkpt lat="47.3558" lon="6.83297">
        <ele>793.034607</ele>
        <time>2013-06-15T13:20:07.036Z</time>
      </trkpt>
      <trkpt lat="47.35572" lon="6.83322">
        <ele>790.754883</ele>
        <time>2013-06-15T13:20:11.039Z</time>
      </trkpt>
      <trkpt lat="47.35562" lon="6.83344">
        <ele>788.492249</ele>
        <time>2013-06-15T13:20:15.036Z</time>
      </trkpt>
      <trkpt lat="47.35551" lon="6.83367">
        <ele>786.271179</ele>
        <time>2013-06-15T13:20:19.042Z</time>
      </trkpt>
      <trkpt lat="47.35541" lon="6.83394">
        <ele>784.092896</ele>
        <time>2013-06-15T13:20:23.042Z</time>
      </trkpt>
      <trkpt lat="47.35537" lon="6.83424">
        <ele>781.887512</ele>
        <time>2013-06-15T13:20:27.068Z</time>
      </trkpt>
      <trkpt lat="47.35535" lon="6.83453">
        <ele>779.79657</ele>
        <time>2013-06-15T13:20:31.034Z</time>
      </trkpt>
      <trkpt lat="47.35532" lon="6.83484">
        <ele>777.532043</ele>
        <time>2013-06-15T13:20:36.041Z</time>
      </trkpt>
      <trkpt lat="47.35528" lon="6.83513">
        <ele>775.57843</ele>
        <time>2013-06-15T13:20:41.036Z</time>
      </trkpt>
      <trkpt lat="47.35522" lon="6.83542">
        <ele>774.051086</ele>
        <time>2013-06-15T13:20:46.037Z</time>
      </trkpt>
      <trkpt lat="47.35512" lon="6.83568">
        <ele>772.969299</ele>
        <time>2013-06-15T13:20:51.031Z</time>
      </trkpt>
      <trkpt lat="47.35501" lon="6.83596">
        <ele>772.273376</ele>
        <time>2013-06-15T13:20:56.038Z</time>
      </trkpt>
      <trkpt lat="47.35491" lon="6.8362">
        <ele>772.103333</ele>
        <time>2013-06-15T13:21:02.043Z</time>
      </trkpt>
      <trkpt lat="47.35473" lon="6.83631">
        <ele>772.934326</ele>
        <time>2013-06-15T13:21:11.041Z</time>
      </trkpt>
      <trkpt lat="47.35452" lon="6.83641">
        <ele>773.385437</ele>
        <time>2013-06-15T13:21:18.039Z</time>
      </trkpt>
      <trkpt lat="47.35435" lon="6.83658">
        <ele>773.429871</ele>
        <time>2013-06-15T13:21:23.030Z</time>
      </trkpt>
      <trkpt lat="47.35422" lon="6.83682">
        <ele>773.583435</ele>
        <time>2013-06-15T13:21:28.037Z</time>
      </trkpt>
      <trkpt lat="47.35409" lon="6.83709">
        <ele>773.790649</ele>
        <time>2013-06-15T13:21:34.032Z</time>
      </trkpt>
      <trkpt lat="47.35409" lon="6.83739">
        <ele>774.415283</ele>
        <time>2013-06-15T13:21:39.033Z</time>
      </trkpt>
      <trkpt lat="47.35408" lon="6.83769">
        <ele>774.606812</ele>
        <time>2013-06-15T13:21:43.032Z</time>
      </trkpt>
      <trkpt lat="47.35406" lon="6.83798">
        <ele>774.654419</ele>
        <time>2013-06-15T13:21:47.036Z</time>
      </trkpt>
      <trkpt lat="47.35408" lon="6.83825">
        <ele>774.079285</ele>
        <time>2013-06-15T13:21:51.034Z</time>
      </trkpt>
      <trkpt lat="47.35409" lon="6.83853">
        <ele>773.777649</ele>
        <time>2013-06-15T13:21:56.040Z</time>
      </trkpt>
      <trkpt lat="47.35414" lon="6.83883">
        <ele>773.581787</ele>
        <time>2013-06-15T13:22:01.042Z</time>
      </trkpt>
      <trkpt lat="47.35417" lon="6.83909">
        <ele>773.411377</ele>
        <time>2013-06-15T13:22:05.041Z</time>
      </trkpt>
      <trkpt lat="47.35424" lon="6.83941">
        <ele>772.69989</ele>
        <time>2013-06-15T13:22:09.038Z</time>
      </trkpt>
      <trkpt lat="47.35433" lon="6.83972">
        <ele>771.7146</ele>
        <time>2013-06-15T13:22:13.033Z</time>
      </trkpt>
      <trkpt lat="47.35436" lon="6.83999">
        <ele>771.154968</ele>
        <time>2013-06-15T13:22:17.037Z</time>
      </trkpt>
      <trkpt lat="47.3543" lon="6.84029">
        <ele>770.680969</ele>
        <time>2013-06-15T13:22:22.039Z</time>
      </trkpt>
      <trkpt lat="47.35422" lon="6.84058">
        <ele>770.555359</ele>
        <time>2013-06-15T13:22:26.031Z</time>
      </trkpt>
      <trkpt lat="47.3542" lon="6.8409">
        <ele>770.172424</ele>
        <time>2013-06-15T13:22:30.036Z</time>
      </trkpt>
      <trkpt lat="47.35422" lon="6.84117">
        <ele>769.703369</ele>
        <time>2013-06-15T13:22:33.049Z</time>
      </trkpt>
      <trkpt lat="47.35423" lon="6.84145">
        <ele>769.0896</ele>
        <time>2013-06-15T13:22:36.036Z</time>
      </trkpt>
      <trkpt lat="47.35423" lon="6.84172">
        <ele>768.494019</ele>
        <time>2013-06-15T13:22:39.036Z</time>
      </trkpt>
      <trkpt lat="47.35423" lon="6.84201">
        <ele>767.941528</ele>
        <time>2013-06-15T13:22:42.051Z</time>
      </trkpt>
      <trkpt lat="47.35421" lon="6.84232">
        <ele>767.266846</ele>
        <time>2013-06-15T13:22:45.507Z</time>
      </trkpt>
      <trkpt lat="47.35418" lon="6.84266">
        <ele>766.756592</ele>
        <time>2013-06-15T13:22:48.035Z</time>
      </trkpt>
      <trkpt lat="47.35414" lon="6.84294">
        <ele>766.632324</ele>
        <time>2013-06-15T13:22:51.039Z</time>
      </trkpt>
      <trkpt lat="47.3541" lon="6.84325">
        <ele>765.797424</ele>
        <time>2013-06-15T13:22:54.034Z</time>
      </trkpt>
      <trkpt lat="47.35405" lon="6.84359">
        <ele>764.818848</ele>
        <time>2013-06-15T13:22:57.034Z</time>
      </trkpt>
      <trkpt lat="47.35398" lon="6.84393">
        <ele>763.603821</ele>
        <time>2013-06-15T13:23:00.046Z</time>
      </trkpt>
      <trkpt lat="47.35393" lon="6.84421">
        <ele>762.342407</ele>
        <time>2013-06-15T13:23:03.037Z</time>
      </trkpt>
      <trkpt lat="47.35388" lon="6.84453">
        <ele>760.944641</ele>
        <time>2013-06-15T13:23:06.035Z</time>
      </trkpt>
      <trkpt lat="47.35384" lon="6.84485">
        <ele>759.836609</ele>
        <time>2013-06-15T13:23:09.033Z</time>
      </trkpt>
      <trkpt lat="47.35379" lon="6.84513">
        <ele>759.077759</ele>
        <time>2013-06-15T13:23:12.039Z</time>
      </trkpt>
      <trkpt lat="47.35372" lon="6.84541">
        <ele>758.276611</ele>
        <time>2013-06-15T13:23:15.044Z</time>
      </trkpt>
      <trkpt lat="47.35361" lon="6.84569">
        <ele>757.686523</ele>
        <time>2013-06-15T13:23:18.046Z</time>
      </trkpt>
      <trkpt lat="47.35354" lon="6.84596">
        <ele>756.967957</ele>
        <time>2013-06-15T13:23:21.032Z</time>
      </trkpt>
      <trkpt lat="47.3535" lon="6.84628">
        <ele>756.16156</ele>
        <time>2013-06-15T13:23:25.040Z</time>
      </trkpt>
      <trkpt lat="47.35349" lon="6.84666">
        <ele>755.799927</ele>
        <time>2013-06-15T13:23:28.040Z</time>
      </trkpt>
      <trkpt lat="47.35344" lon="6.84697">
        <ele>755.362488</ele>
        <time>2013-06-15T13:23:32.034Z</time>
      </trkpt>
      <trkpt lat="47.35345" lon="6.84728">
        <ele>755.325439</ele>
        <time>2013-06-15T13:23:35.041Z</time>
      </trkpt>
      <trkpt lat="47.35346" lon="6.84762">
        <ele>754.919678</ele>
        <time>2013-06-15T13:23:39.040Z</time>
      </trkpt>
      <trkpt lat="47.35347" lon="6.84789">
        <ele>754.643372</ele>
        <time>2013-06-15T13:23:42.040Z</time>
      </trkpt>
      <trkpt lat="47.35349" lon="6.84825">
        <ele>754.388916</ele>
        <time>2013-06-15T13:23:46.038Z</time>
      </trkpt>
      <trkpt lat="47.35348" lon="6.84859">
        <ele>754.325317</ele>
        <time>2013-06-15T13:23:49.039Z</time>
      </trkpt>
      <trkpt lat="47.35346" lon="6.84895">
        <ele>753.727722</ele>
        <time>2013-06-15T13:23:52.036Z</time>
      </trkpt>
      <trkpt lat="47.35342" lon="6.84926">
        <ele>753.579102</ele>
        <time>2013-06-15T13:23:55.034Z</time>
      </trkpt>
      <trkpt lat="47.35336" lon="6.84959">
        <ele>753.470337</ele>
        <time>2013-06-15T13:23:58.039Z</time>
      </trkpt>
      <trkpt lat="47.35329" lon="6.84994">
        <ele>753.436768</ele>
        <time>2013-06-15T13:24:01.037Z</time>
      </trkpt>
      <trkpt lat="47.35321" lon="6.85027">
        <ele>753.32135</ele>
        <time>2013-06-15T13:24:04.030Z</time>
      </trkpt>
      <trkpt lat="47.35312" lon="6.85064">
        <ele>753.192078</ele>
        <time>2013-06-15T13:24:07.030Z</time>
      </trkpt>
      <trkpt lat="47.35302" lon="6.85101">
        <ele>752.664856</ele>
        <time>2013-06-15T13:24:10.039Z</time>
      </trkpt>
      <trkpt lat="47.35294" lon="6.85141">
        <ele>751.980591</ele>
        <time>2013-06-15T13:24:13.032Z</time>
      </trkpt>
      <trkpt lat="47.35284" lon="6.85179">
        <ele>751.31189</ele>
        <time>2013-06-15T13:24:16.027Z</time>
      </trkpt>
      <trkpt lat="47.35275" lon="6.85219">
        <ele>750.455933</ele>
        <time>2013-06-15T13:24:19.033Z</time>
      </trkpt>
      <trkpt lat="47.3527" lon="6.85246">
        <ele>749.896606</ele>
        <time>2013-06-15T13:24:21.035Z</time>
      </trkpt>
      <trkpt lat="47.35267" lon="6.85273">
        <ele>749.256409</ele>
        <time>2013-06-15T13:24:23.035Z</time>
      </trkpt>
      <trkpt lat="47.35272" lon="6.8531">
        <ele>748.07135</ele>
        <time>2013-06-15T13:24:26.039Z</time>
      </trkpt>
      <trkpt lat="47.35278" lon="6.85337">
        <ele>747.226379</ele>
        <time>2013-06-15T13:24:28.031Z</time>
      </trkpt>
      <trkpt lat="47.35291" lon="6.85376">
        <ele>746.029297</ele>
        <time>2013-06-15T13:24:31.034Z</time>
      </trkpt>
      <trkpt lat="47.35304" lon="6.85406">
        <ele>744.560425</ele>
        <time>2013-06-15T13:24:34.041Z</time>
      </trkpt>
      <trkpt lat="47.35321" lon="6.85426">
        <ele>742.98584</ele>
        <time>2013-06-15T13:24:37.036Z</time>
      </trkpt>
      <trkpt lat="47.35335" lon="6.85454">
        <ele>741.139832</ele>
        <time>2013-06-15T13:24:41.042Z</time>
      </trkpt>
      <trkpt lat="47.35323" lon="6.85481">
        <ele>739.22052</ele>
        <time>2013-06-15T13:24:45.039Z</time>
      </trkpt>
      <trkpt lat="47.35307" lon="6.85498">
        <ele>737.62262</ele>
        <time>2013-06-15T13:24:48.053Z</time>
      </trkpt>
      <trkpt lat="47.35287" lon="6.85508">
        <ele>736.329529</ele>
        <time>2013-06-15T13:24:51.037Z</time>
      </trkpt>
      <trkpt lat="47.35267" lon="6.85501">
        <ele>734.781738</ele>
        <time>2013-06-15T13:24:55.046Z</time>
      </trkpt>
      <trkpt lat="47.35248" lon="6.85484">
        <ele>733.382935</ele>
        <time>2013-06-15T13:24:59.041Z</time>
      </trkpt>
      <trkpt lat="47.35233" lon="6.85463">
        <ele>732.593445</ele>
        <time>2013-06-15T13:25:03.558Z</time>
      </trkpt>
      <trkpt lat="47.35217" lon="6.85435">
        <ele>731.782104</ele>
        <time>2013-06-15T13:25:05.036Z</time>
      </trkpt>
      <trkpt lat="47.35201" lon="6.85416">
        <ele>731.342224</ele>
        <time>2013-06-15T13:25:07.054Z</time>
      </trkpt>
      <trkpt lat="47.35186" lon="6.85397">
        <ele>730.958557</ele>
        <time>2013-06-15T13:25:09.267Z</time>
      </trkpt>
      <trkpt lat="47.35155" lon="6.8536">
        <ele>730.362671</ele>
        <time>2013-06-15T13:25:12.047Z</time>
      </trkpt>
      <trkpt lat="47.35122" lon="6.85323">
        <ele>729.552856</ele>
        <time>2013-06-15T13:25:15.047Z</time>
      </trkpt>
      <trkpt lat="47.35101" lon="6.85302">
        <ele>728.829346</ele>
        <time>2013-06-15T13:25:17.934Z</time>
      </trkpt>
      <trkpt lat="47.35072" lon="6.85274">
        <ele>727.572754</ele>
        <time>2013-06-15T13:25:20.042Z</time>
      </trkpt>
      <trkpt lat="47.35057" lon="6.85258">
        <ele>726.17981</ele>
        <time>2013-06-15T13:25:23.036Z</time>
      </trkpt>
      <trkpt lat="47.35041" lon="6.85274">
        <ele>722.992798</ele>
        <time>2013-06-15T13:25:35.190Z</time>
      </trkpt>
      <trkpt lat="47.35038" lon="6.85301">
        <ele>721.490173</ele>
        <time>2013-06-15T13:25:48.045Z</time>
      </trkpt>
      <trkpt lat="47.35025" lon="6.85323">
        <ele>719.446289</ele>
        <time>2013-06-15T13:26:01.030Z</time>
      </trkpt>
      <trkpt lat="47.35013" lon="6.85345">
        <ele>718.932251</ele>
        <time>2013-06-15T13:26:15.031Z</time>
      </trkpt>
      <trkpt lat="47.34995" lon="6.85356">
        <ele>720.804871</ele>
        <time>2013-06-15T13:26:24.030Z</time>
      </trkpt>
      <trkpt lat="47.34977" lon="6.85362">
        <ele>722.071716</ele>
        <time>2013-06-15T13:26:32.031Z</time>
      </trkpt>
      <trkpt lat="47.3496" lon="6.85369">
        <ele>721.282532</ele>
        <time>2013-06-15T13:26:39.033Z</time>
      </trkpt>
      <trkpt lat="47.3494" lon="6.85379">
        <ele>720.312622</ele>
        <time>2013-06-15T13:26:45.034Z</time>
      </trkpt>
      <trkpt lat="47.34918" lon="6.85385">
        <ele>719.540466</ele>
        <time>2013-06-15T13:26:51.029Z</time>
      </trkpt>
      <trkpt lat="47.34902" lon="6.85411">
        <ele>718.39856</ele>
        <time>2013-06-15T13:26:57.028Z</time>
      </trkpt>
      <trkpt lat="47.34894" lon="6.85437">
        <ele>717.154907</ele>
        <time>2013-06-15T13:27:01.046Z</time>
      </trkpt>
      <trkpt lat="47.3488" lon="6.8546">
        <ele>716.074341</ele>
        <time>2013-06-15T13:27:05.032Z</time>
      </trkpt>
      <trkpt lat="47.34868" lon="6.85479">
        <ele>715.43219</ele>
        <time>2013-06-15T13:27:10.037Z</time>
      </trkpt>
      <trkpt lat="47.34859" lon="6.85505">
        <ele>715.138794</ele>
        <time>2013-06-15T13:27:16.037Z</time>
      </trkpt>
      <trkpt lat="47.34846" lon="6.85528">
        <ele>715.166809</ele>
        <time>2013-06-15T13:27:21.176Z</time>
      </trkpt>
      <trkpt lat="47.34831" lon="6.8555">
        <ele>715.379395</ele>
        <time>2013-06-15T13:27:26.034Z</time>
      </trkpt>
      <trkpt lat="47.34815" lon="6.8557">
        <ele>715.638916</ele>
        <time>2013-06-15T13:27:29.033Z</time>
      </trkpt>
      <trkpt lat="47.34801" lon="6.85586">
        <ele>716.129028</ele>
        <time>2013-06-15T13:27:33.033Z</time>
      </trkpt>
      <trkpt lat="47.3479" lon="6.8561">
        <ele>717.600281</ele>
        <time>2013-06-15T13:27:39.031Z</time>
      </trkpt>
      <trkpt lat="47.34779" lon="6.85635">
        <ele>720.895569</ele>
        <time>2013-06-15T13:27:49.033Z</time>
      </trkpt>
      <trkpt lat="47.34766" lon="6.85656">
        <ele>723.584961</ele>
        <time>2013-06-15T13:28:00.042Z</time>
      </trkpt>
      <trkpt lat="47.34753" lon="6.85677">
        <ele>725.140442</ele>
        <time>2013-06-15T13:28:10.035Z</time>
      </trkpt>
      <trkpt lat="47.34734" lon="6.85701">
        <ele>725.419434</ele>
        <time>2013-06-15T13:28:15.037Z</time>
      </trkpt>
      <trkpt lat="47.34719" lon="6.85724">
        <ele>723.645081</ele>
        <time>2013-06-15T13:28:32.036Z</time>
      </trkpt>
      <trkpt lat="47.34703" lon="6.85741">
        <ele>720.20459</ele>
        <time>2013-06-15T13:28:44.035Z</time>
      </trkpt>
      <trkpt lat="47.34687" lon="6.85758">
        <ele>718.432739</ele>
        <time>2013-06-15T13:28:58.033Z</time>
      </trkpt>
      <trkpt lat="47.34673" lon="6.85777">
        <ele>717.604919</ele>
        <time>2013-06-15T13:29:06.036Z</time>
      </trkpt>
      <trkpt lat="47.34656" lon="6.85791">
        <ele>714.852417</ele>
        <time>2013-06-15T13:29:15.037Z</time>
      </trkpt>
      <trkpt lat="47.34635" lon="6.85784">
        <ele>713.148682</ele>
        <time>2013-06-15T13:29:19.037Z</time>
      </trkpt>
      <trkpt lat="47.34613" lon="6.85776">
        <ele>711.80542</ele>
        <time>2013-06-15T13:29:22.033Z</time>
      </trkpt>
      <trkpt lat="47.34596" lon="6.85767">
        <ele>710.259827</ele>
        <time>2013-06-15T13:29:25.033Z</time>
      </trkpt>
      <trkpt lat="47.34579" lon="6.85758">
        <ele>707.955444</ele>
        <time>2013-06-15T13:29:29.103Z</time>
      </trkpt>
      <trkpt lat="47.34563" lon="6.85741">
        <ele>691.277039</ele>
        <time>2013-06-15T13:30:02.031Z</time>
      </trkpt>
      <trkpt lat="47.34556" lon="6.85711">
        <ele>688.975891</ele>
        <time>2013-06-15T13:30:07.032Z</time>
      </trkpt>
      <trkpt lat="47.34553" lon="6.85681">
        <ele>687.19812</ele>
        <time>2013-06-15T13:30:11.032Z</time>
      </trkpt>
      <trkpt lat="47.34545" lon="6.85647">
        <ele>686.073669</ele>
        <time>2013-06-15T13:30:14.037Z</time>
      </trkpt>
      <trkpt lat="47.34535" lon="6.85614">
        <ele>685.049255</ele>
        <time>2013-06-15T13:30:17.034Z</time>
      </trkpt>
      <trkpt lat="47.34525" lon="6.85591">
        <ele>683.767639</ele>
        <time>2013-06-15T13:30:21.033Z</time>
      </trkpt>
      <trkpt lat="47.34512" lon="6.8561">
        <ele>682.352417</ele>
        <time>2013-06-15T13:30:28.032Z</time>
      </trkpt>
      <trkpt lat="47.34509" lon="6.85642">
        <ele>681.763855</ele>
        <time>2013-06-15T13:30:33.037Z</time>
      </trkpt>
      <trkpt lat="47.34507" lon="6.85672">
        <ele>681.286499</ele>
        <time>2013-06-15T13:30:38.039Z</time>
      </trkpt>
      <trkpt lat="47.34505" lon="6.85702">
        <ele>680.605408</ele>
        <time>2013-06-15T13:30:44.034Z</time>
      </trkpt>
      <trkpt lat="47.34503" lon="6.85729">
        <ele>679.794739</ele>
        <time>2013-06-15T13:30:50.041Z</time>
      </trkpt>
      <trkpt lat="47.345" lon="6.85758">
        <ele>679.34021</ele>
        <time>2013-06-15T13:30:56.034Z</time>
      </trkpt>
      <trkpt lat="47.34494" lon="6.85784">
        <ele>678.988159</ele>
        <time>2013-06-15T13:31:02.035Z</time>
      </trkpt>
      <trkpt lat="47.34487" lon="6.85811">
        <ele>679.11145</ele>
        <time>2013-06-15T13:31:09.031Z</time>
      </trkpt>
      <trkpt lat="47.34482" lon="6.85837">
        <ele>680.015381</ele>
        <time>2013-06-15T13:31:16.035Z</time>
      </trkpt>
      <trkpt lat="47.34479" lon="6.85864">
        <ele>681.124512</ele>
        <time>2013-06-15T13:31:23.033Z</time>
      </trkpt>
      <trkpt lat="47.34481" lon="6.85893">
        <ele>682.310974</ele>
        <time>2013-06-15T13:31:30.033Z</time>
      </trkpt>
      <trkpt lat="47.34481" lon="6.85921">
        <ele>683.596069</ele>
        <time>2013-06-15T13:31:37.039Z</time>
      </trkpt>
      <trkpt lat="47.34479" lon="6.85947">
        <ele>685.183655</ele>
        <time>2013-06-15T13:31:44.033Z</time>
      </trkpt>
      <trkpt lat="47.34469" lon="6.85969">
        <ele>692.504211</ele>
        <time>2013-06-15T13:46:14.987Z</time>
      </trkpt>
      <trkpt lat="47.34452" lon="6.85986">
        <ele>694.51001</ele>
        <time>2013-06-15T13:46:24.988Z</time>
      </trkpt>
      <trkpt lat="47.34437" lon="6.86005">
        <ele>695.558105</ele>
        <time>2013-06-15T13:46:30.986Z</time>
      </trkpt>
      <trkpt lat="47.34418" lon="6.86024">
        <ele>695.931274</ele>
        <time>2013-06-15T13:46:34.987Z</time>
      </trkpt>
      <trkpt lat="47.34405" lon="6.86055">
        <ele>695.900269</ele>
        <time>2013-06-15T13:46:37.988Z</time>
      </trkpt>
      <trkpt lat="47.34405" lon="6.86085">
        <ele>695.796448</ele>
        <time>2013-06-15T13:46:40.987Z</time>
      </trkpt>
      <trkpt lat="47.34413" lon="6.8611">
        <ele>695.874084</ele>
        <time>2013-06-15T13:46:43.989Z</time>
      </trkpt>
      <trkpt lat="47.34421" lon="6.86137">
        <ele>696.090576</ele>
        <time>2013-06-15T13:46:47.988Z</time>
      </trkpt>
      <trkpt lat="47.34426" lon="6.8617">
        <ele>696.400452</ele>
        <time>2013-06-15T13:46:51.988Z</time>
      </trkpt>
      <trkpt lat="47.3443" lon="6.86202">
        <ele>696.441162</ele>
        <time>2013-06-15T13:46:54.987Z</time>
      </trkpt>
      <trkpt lat="47.34436" lon="6.86228">
        <ele>696.446472</ele>
        <time>2013-06-15T13:46:57.987Z</time>
      </trkpt>
      <trkpt lat="47.34442" lon="6.86254">
        <ele>696.210144</ele>
        <time>2013-06-15T13:47:01.988Z</time>
      </trkpt>
      <trkpt lat="47.34455" lon="6.86278">
        <ele>695.972473</ele>
        <time>2013-06-15T13:47:05.987Z</time>
      </trkpt>
      <trkpt lat="47.34472" lon="6.86298">
        <ele>695.602844</ele>
        <time>2013-06-15T13:47:08.989Z</time>
      </trkpt>
      <trkpt lat="47.34479" lon="6.86328">
        <ele>694.952698</ele>
        <time>2013-06-15T13:47:12.988Z</time>
      </trkpt>
      <trkpt lat="47.34485" lon="6.86354">
        <ele>694.296936</ele>
        <time>2013-06-15T13:47:15.988Z</time>
      </trkpt>
      <trkpt lat="47.34488" lon="6.86385">
        <ele>693.244629</ele>
        <time>2013-06-15T13:47:20.011Z</time>
      </trkpt>
      <trkpt lat="47.34488" lon="6.86417">
        <ele>692.064758</ele>
        <time>2013-06-15T13:47:23.989Z</time>
      </trkpt>
      <trkpt lat="47.34492" lon="6.86443">
        <ele>691.020569</ele>
        <time>2013-06-15T13:47:27.989Z</time>
      </trkpt>
      <trkpt lat="47.34487" lon="6.86474">
        <ele>690.119568</ele>
        <time>2013-06-15T13:47:32.989Z</time>
      </trkpt>
      <trkpt lat="47.34469" lon="6.86491">
        <ele>690.22876</ele>
        <time>2013-06-15T13:47:36.990Z</time>
      </trkpt>
      <trkpt lat="47.34456" lon="6.86513">
        <ele>690.263672</ele>
        <time>2013-06-15T13:47:41.992Z</time>
      </trkpt>
      <trkpt lat="47.34446" lon="6.86543">
        <ele>689.798462</ele>
        <time>2013-06-15T13:47:45.991Z</time>
      </trkpt>
      <trkpt lat="47.3443" lon="6.8656">
        <ele>689.157471</ele>
        <time>2013-06-15T13:47:49.994Z</time>
      </trkpt>
      <trkpt lat="47.34412" lon="6.86573">
        <ele>688.257812</ele>
        <time>2013-06-15T13:47:53.989Z</time>
      </trkpt>
      <trkpt lat="47.34394" lon="6.8658">
        <ele>687.661377</ele>
        <time>2013-06-15T13:47:56.991Z</time>
      </trkpt>
      <trkpt lat="47.34376" lon="6.86589">
        <ele>687.031677</ele>
        <time>2013-06-15T13:47:59.990Z</time>
      </trkpt>
      <trkpt lat="47.34362" lon="6.86567">
        <ele>685.885193</ele>
        <time>2013-06-15T13:48:04.989Z</time>
      </trkpt>
      <trkpt lat="47.34367" lon="6.86541">
        <ele>682.369507</ele>
        <time>2013-06-15T13:48:12.993Z</time>
      </trkpt>
      <trkpt lat="47.34367" lon="6.86514">
        <ele>678.242676</ele>
        <time>2013-06-15T13:48:20.990Z</time>
      </trkpt>
      <trkpt lat="47.34359" lon="6.86487">
        <ele>674.779114</ele>
        <time>2013-06-15T13:48:28.990Z</time>
      </trkpt>
      <trkpt lat="47.3435" lon="6.8646">
        <ele>671.001892</ele>
        <time>2013-06-15T13:48:34.993Z</time>
      </trkpt>
      <trkpt lat="47.34338" lon="6.86433">
        <ele>665.716187</ele>
        <time>2013-06-15T13:48:41.990Z</time>
      </trkpt>
      <trkpt lat="47.3433" lon="6.86406">
        <ele>658.922607</ele>
        <time>2013-06-15T13:48:49.992Z</time>
      </trkpt>
      <trkpt lat="47.3432" lon="6.86381">
        <ele>653.869995</ele>
        <time>2013-06-15T13:48:56.989Z</time>
      </trkpt>
      <trkpt lat="47.34306" lon="6.86361">
        <ele>648.009277</ele>
        <time>2013-06-15T13:49:05.990Z</time>
      </trkpt>
      <trkpt lat="47.34292" lon="6.86344">
        <ele>645.917297</ele>
        <time>2013-06-15T13:49:09.992Z</time>
      </trkpt>
      <trkpt lat="47.34274" lon="6.86328">
        <ele>643.994751</ele>
        <time>2013-06-15T13:49:13.988Z</time>
      </trkpt>
      <trkpt lat="47.34258" lon="6.86314">
        <ele>641.094604</ele>
        <time>2013-06-15T13:49:18.989Z</time>
      </trkpt>
      <trkpt lat="47.34242" lon="6.86293">
        <ele>636.60498</ele>
        <time>2013-06-15T13:49:24.988Z</time>
      </trkpt>
      <trkpt lat="47.34228" lon="6.8627">
        <ele>633.596802</ele>
        <time>2013-06-15T13:49:28.988Z</time>
      </trkpt>
      <trkpt lat="47.3421" lon="6.86252">
        <ele>630.68811</ele>
        <time>2013-06-15T13:49:33.987Z</time>
      </trkpt>
      <trkpt lat="47.34188" lon="6.86241">
        <ele>628.208069</ele>
        <time>2013-06-15T13:49:38.988Z</time>
      </trkpt>
      <trkpt lat="47.34169" lon="6.86233">
        <ele>627.039185</ele>
        <time>2013-06-15T13:49:41.987Z</time>
      </trkpt>
      <trkpt lat="47.3415" lon="6.86226">
        <ele>625.251038</ele>
        <time>2013-06-15T13:49:45.988Z</time>
      </trkpt>
      <trkpt lat="47.34132" lon="6.86227">
        <ele>623.424561</ele>
        <time>2013-06-15T13:49:49.990Z</time>
      </trkpt>
      <trkpt lat="47.34112" lon="6.86231">
        <ele>618.512817</ele>
        <time>2013-06-15T13:49:57.987Z</time>
      </trkpt>
      <trkpt lat="47.34093" lon="6.86231">
        <ele>613.373901</ele>
        <time>2013-06-15T13:50:04.988Z</time>
      </trkpt>
      <trkpt lat="47.34074" lon="6.86227">
        <ele>608.785339</ele>
        <time>2013-06-15T13:50:11.988Z</time>
      </trkpt>
      <trkpt lat="47.34054" lon="6.86217">
        <ele>606.231262</ele>
        <time>2013-06-15T13:50:15.991Z</time>
      </trkpt>
      <trkpt lat="47.34035" lon="6.86208">
        <ele>603.307373</ele>
        <time>2013-06-15T13:50:20.991Z</time>
      </trkpt>
      <trkpt lat="47.34016" lon="6.86203">
        <ele>601.533081</ele>
        <time>2013-06-15T13:50:25.989Z</time>
      </trkpt>
      <trkpt lat="47.33997" lon="6.86207">
        <ele>599.329407</ele>
        <time>2013-06-15T13:50:30.990Z</time>
      </trkpt>
      <trkpt lat="47.33979" lon="6.86216">
        <ele>596.82605</ele>
        <time>2013-06-15T13:50:35.988Z</time>
      </trkpt>
      <trkpt lat="47.3396" lon="6.86224">
        <ele>594.577271</ele>
        <time>2013-06-15T13:50:40.988Z</time>
      </trkpt>
      <trkpt lat="47.33941" lon="6.86229">
        <ele>593.261292</ele>
        <time>2013-06-15T13:50:44.989Z</time>
      </trkpt>
      <trkpt lat="47.33922" lon="6.86236">
        <ele>591.979614</ele>
        <time>2013-06-15T13:50:48.990Z</time>
      </trkpt>
      <trkpt lat="47.33903" lon="6.86249">
        <ele>590.411621</ele>
        <time>2013-06-15T13:50:54.990Z</time>
      </trkpt>
      <trkpt lat="47.33887" lon="6.86261">
        <ele>583.291748</ele>
        <time>2013-06-15T13:51:26.049Z</time>
      </trkpt>
      <trkpt lat="47.33874" lon="6.8628">
        <ele>581.661987</ele>
        <time>2013-06-15T13:51:38.993Z</time>
      </trkpt>
      <trkpt lat="47.33858" lon="6.863">
        <ele>580.468567</ele>
        <time>2013-06-15T13:51:43.991Z</time>
      </trkpt>
      <trkpt lat="47.33839" lon="6.86313">
        <ele>579.11438</ele>
        <time>2013-06-15T13:51:49.990Z</time>
      </trkpt>
      <trkpt lat="47.3382" lon="6.8632">
        <ele>577.646057</ele>
        <time>2013-06-15T13:51:54.991Z</time>
      </trkpt>
      <trkpt lat="47.33803" lon="6.86327">
        <ele>575.549194</ele>
        <time>2013-06-15T13:51:58.990Z</time>
      </trkpt>
      <trkpt lat="47.33784" lon="6.86338">
        <ele>572.427063</ele>
        <time>2013-06-15T13:52:03.990Z</time>
      </trkpt>
      <trkpt lat="47.33768" lon="6.86353">
        <ele>570.818054</ele>
        <time>2013-06-15T13:52:08.988Z</time>
      </trkpt>
      <trkpt lat="47.3375" lon="6.86341">
        <ele>552.074036</ele>
        <time>2013-06-15T13:52:47.992Z</time>
      </trkpt>
      <trkpt lat="47.33734" lon="6.86328">
        <ele>548.032104</ele>
        <time>2013-06-15T13:52:57.989Z</time>
      </trkpt>
      <trkpt lat="47.33718" lon="6.86314">
        <ele>546.328613</ele>
        <time>2013-06-15T13:53:07.989Z</time>
      </trkpt>
      <trkpt lat="47.33701" lon="6.86301">
        <ele>545.699768</ele>
        <time>2013-06-15T13:53:15.989Z</time>
      </trkpt>
      <trkpt lat="47.33683" lon="6.86288">
        <ele>545.302063</ele>
        <time>2013-06-15T13:53:21.991Z</time>
      </trkpt>
      <trkpt lat="47.33665" lon="6.86276">
        <ele>544.975525</ele>
        <time>2013-06-15T13:53:25.993Z</time>
      </trkpt>
      <trkpt lat="47.33648" lon="6.86265">
        <ele>545.019836</ele>
        <time>2013-06-15T13:53:28.990Z</time>
      </trkpt>
      <trkpt lat="47.3363" lon="6.86258">
        <ele>545.433044</ele>
        <time>2013-06-15T13:53:32.989Z</time>
      </trkpt>
      <trkpt lat="47.33609" lon="6.86258">
        <ele>546.152405</ele>
        <time>2013-06-15T13:53:38.990Z</time>
      </trkpt>
      <trkpt lat="47.33589" lon="6.86254">
        <ele>546.158569</ele>
        <time>2013-06-15T13:53:41.990Z</time>
      </trkpt>
      <trkpt lat="47.33571" lon="6.86245">
        <ele>546.006714</ele>
        <time>2013-06-15T13:53:43.991Z</time>
      </trkpt>
      <trkpt lat="47.33548" lon="6.86229">
        <ele>545.513123</ele>
        <time>2013-06-15T13:53:47.097Z</time>
      </trkpt>
      <trkpt lat="47.33524" lon="6.86212">
        <ele>545.139893</ele>
        <time>2013-06-15T13:53:50.042Z</time>
      </trkpt>
      <trkpt lat="47.33505" lon="6.86196">
        <ele>544.954712</ele>
        <time>2013-06-15T13:53:53.042Z</time>
      </trkpt>
      <trkpt lat="47.33487" lon="6.86184">
        <ele>545.082825</ele>
        <time>2013-06-15T13:53:59.045Z</time>
      </trkpt>
      <trkpt lat="47.33465" lon="6.86185">
        <ele>545.488281</ele>
        <time>2013-06-15T13:54:03.041Z</time>
      </trkpt>
      <trkpt lat="47.33443" lon="6.86189">
        <ele>545.685059</ele>
        <time>2013-06-15T13:54:07.043Z</time>
      </trkpt>
      <trkpt lat="47.33422" lon="6.862">
        <ele>545.850159</ele>
        <time>2013-06-15T13:54:11.042Z</time>
      </trkpt>
      <trkpt lat="47.33405" lon="6.86209">
        <ele>545.779724</ele>
        <time>2013-06-15T13:54:15.055Z</time>
      </trkpt>
      <trkpt lat="47.33387" lon="6.86217">
        <ele>545.589294</ele>
        <time>2013-06-15T13:54:18.048Z</time>
      </trkpt>
      <trkpt lat="47.33366" lon="6.86227">
        <ele>545.419922</ele>
        <time>2013-06-15T13:54:22.048Z</time>
      </trkpt>
      <trkpt lat="47.33348" lon="6.86233">
        <ele>545.708252</ele>
        <time>2013-06-15T13:54:26.044Z</time>
      </trkpt>
      <trkpt lat="47.3333" lon="6.86241">
        <ele>545.686951</ele>
        <time>2013-06-15T13:54:32.043Z</time>
      </trkpt>
      <trkpt lat="47.33311" lon="6.8624">
        <ele>545.456726</ele>
        <time>2013-06-15T13:54:36.049Z</time>
      </trkpt>
      <trkpt lat="47.33291" lon="6.8624">
        <ele>545.532715</ele>
        <time>2013-06-15T13:54:41.052Z</time>
      </trkpt>
      <trkpt lat="47.33275" lon="6.86255">
        <ele>546.317993</ele>
        <time>2013-06-15T13:54:47.054Z</time>
      </trkpt>
      <trkpt lat="47.33257" lon="6.86272">
        <ele>546.893982</ele>
        <time>2013-06-15T13:54:52.049Z</time>
      </trkpt>
      <trkpt lat="47.33238" lon="6.86266">
        <ele>546.90155</ele>
        <time>2013-06-15T13:54:56.047Z</time>
      </trkpt>
      <trkpt lat="47.33218" lon="6.86257">
        <ele>546.337158</ele>
        <time>2013-06-15T13:55:01.053Z</time>
      </trkpt>
      <trkpt lat="47.33197" lon="6.8625">
        <ele>545.785339</ele>
        <time>2013-06-15T13:55:08.063Z</time>
      </trkpt>
      <trkpt lat="47.33179" lon="6.86246">
        <ele>545.561523</ele>
        <time>2013-06-15T13:55:14.056Z</time>
      </trkpt>
      <trkpt lat="47.3316" lon="6.86242">
        <ele>545.898132</ele>
        <time>2013-06-15T13:55:21.058Z</time>
      </trkpt>
      <trkpt lat="47.3314" lon="6.86238">
        <ele>545.670837</ele>
        <time>2013-06-15T13:55:28.042Z</time>
      </trkpt>
      <trkpt lat="47.33121" lon="6.86231">
        <ele>545.209473</ele>
        <time>2013-06-15T13:55:36.054Z</time>
      </trkpt>
      <trkpt lat="47.33104" lon="6.86221">
        <ele>545.147888</ele>
        <time>2013-06-15T13:55:43.056Z</time>
      </trkpt>
      <trkpt lat="47.33088" lon="6.86203">
        <ele>545.003174</ele>
        <time>2013-06-15T13:55:51.042Z</time>
      </trkpt>
      <trkpt lat="47.33072" lon="6.86187">
        <ele>545.49823</ele>
        <time>2013-06-15T13:55:57.045Z</time>
      </trkpt>
      <trkpt lat="47.33056" lon="6.86164">
        <ele>546.485046</ele>
        <time>2013-06-15T13:56:03.049Z</time>
      </trkpt>
      <trkpt lat="47.33047" lon="6.86138">
        <ele>546.745117</ele>
        <time>2013-06-15T13:56:07.051Z</time>
      </trkpt>
      <trkpt lat="47.33037" lon="6.86115">
        <ele>546.89624</ele>
        <time>2013-06-15T13:56:10.052Z</time>
      </trkpt>
      <trkpt lat="47.3302" lon="6.861">
        <ele>546.769714</ele>
        <time>2013-06-15T13:56:13.050Z</time>
      </trkpt>
      <trkpt lat="47.33001" lon="6.86086">
        <ele>546.709412</ele>
        <time>2013-06-15T13:56:16.052Z</time>
      </trkpt>
      <trkpt lat="47.32989" lon="6.86056">
        <ele>546.622131</ele>
        <time>2013-06-15T13:56:19.051Z</time>
      </trkpt>
      <trkpt lat="47.3298" lon="6.86016">
        <ele>546.237366</ele>
        <time>2013-06-15T13:56:22.045Z</time>
      </trkpt>
      <trkpt lat="47.32972" lon="6.85978">
        <ele>545.607544</ele>
        <time>2013-06-15T13:56:25.049Z</time>
      </trkpt>
      <trkpt lat="47.32964" lon="6.85939">
        <ele>544.806885</ele>
        <time>2013-06-15T13:56:28.047Z</time>
      </trkpt>
      <trkpt lat="47.3296" lon="6.85892">
        <ele>543.886414</ele>
        <time>2013-06-15T13:56:31.043Z</time>
      </trkpt>
      <trkpt lat="47.32967" lon="6.85854">
        <ele>542.644165</ele>
        <time>2013-06-15T13:56:34.050Z</time>
      </trkpt>
      <trkpt lat="47.32976" lon="6.85823">
        <ele>541.153564</ele>
        <time>2013-06-15T13:56:37.045Z</time>
      </trkpt>
      <trkpt lat="47.32986" lon="6.85792">
        <ele>539.171204</ele>
        <time>2013-06-15T13:56:40.048Z</time>
      </trkpt>
      <trkpt lat="47.3299" lon="6.85761">
        <ele>537.902527</ele>
        <time>2013-06-15T13:56:42.048Z</time>
      </trkpt>
      <trkpt lat="47.32995" lon="6.8571">
        <ele>535.735107</ele>
        <time>2013-06-15T13:56:45.044Z</time>
      </trkpt>
      <trkpt lat="47.32996" lon="6.85677">
        <ele>534.377747</ele>
        <time>2013-06-15T13:56:47.059Z</time>
      </trkpt>
      <trkpt lat="47.32995" lon="6.85646">
        <ele>532.969727</ele>
        <time>2013-06-15T13:56:49.063Z</time>
      </trkpt>
      <trkpt lat="47.32986" lon="6.85612">
        <ele>530.944763</ele>
        <time>2013-06-15T13:56:52.061Z</time>
      </trkpt>
      <trkpt lat="47.32972" lon="6.85587">
        <ele>528.147095</ele>
        <time>2013-06-15T13:56:56.049Z</time>
      </trkpt>
      <trkpt lat="47.32958" lon="6.85565">
        <ele>523.150757</ele>
        <time>2013-06-15T13:57:03.048Z</time>
      </trkpt>
      <trkpt lat="47.32943" lon="6.85545">
        <ele>518.660217</ele>
        <time>2013-06-15T13:57:10.045Z</time>
      </trkpt>
      <trkpt lat="47.32931" lon="6.85525">
        <ele>513.900146</ele>
        <time>2013-06-15T13:57:19.045Z</time>
      </trkpt>
      <trkpt lat="47.32922" lon="6.85501">
        <ele>510.450653</ele>
        <time>2013-06-15T13:57:32.044Z</time>
      </trkpt>
      <trkpt lat="47.32917" lon="6.85474">
        <ele>512.820374</ele>
        <time>2013-06-15T13:57:53.044Z</time>
      </trkpt>
      <trkpt lat="47.32909" lon="6.8545">
        <ele>515.765137</ele>
        <time>2013-06-15T13:58:10.046Z</time>
      </trkpt>
      <trkpt lat="47.32903" lon="6.85421">
        <ele>519.461487</ele>
        <time>2013-06-15T13:58:38.045Z</time>
      </trkpt>
      <trkpt lat="47.32893" lon="6.85396">
        <ele>522.96283</ele>
        <time>2013-06-15T13:59:08.045Z</time>
      </trkpt>
      <trkpt lat="47.32884" lon="6.85365">
        <ele>525.492493</ele>
        <time>2013-06-15T13:59:39.039Z</time>
      </trkpt>
      <trkpt lat="47.32876" lon="6.8534">
        <ele>529.610291</ele>
        <time>2013-06-15T13:59:59.045Z</time>
      </trkpt>
      <trkpt lat="47.32864" lon="6.85319">
        <ele>531.498474</ele>
        <time>2013-06-15T14:00:17.046Z</time>
      </trkpt>
      <trkpt lat="47.32851" lon="6.85293">
        <ele>536.654907</ele>
        <time>2013-06-15T14:00:38.046Z</time>
      </trkpt>
      <trkpt lat="47.32844" lon="6.85268">
        <ele>539.88739</ele>
        <time>2013-06-15T14:00:59.044Z</time>
      </trkpt>
      <trkpt lat="47.32836" lon="6.85242">
        <ele>546.153381</ele>
        <time>2013-06-15T14:01:20.046Z</time>
      </trkpt>
      <trkpt lat="47.32823" lon="6.85216">
        <ele>551.501892</ele>
        <time>2013-06-15T14:01:44.048Z</time>
      </trkpt>
      <trkpt lat="47.32817" lon="6.85188">
        <ele>554.720825</ele>
        <time>2013-06-15T14:02:05.045Z</time>
      </trkpt>
      <trkpt lat="47.32809" lon="6.85164">
        <ele>555.022095</ele>
        <time>2013-06-15T14:02:22.045Z</time>
      </trkpt>
      <trkpt lat="47.32797" lon="6.85143">
        <ele>555.719421</ele>
        <time>2013-06-15T14:02:40.046Z</time>
      </trkpt>
      <trkpt lat="47.32786" lon="6.85122">
        <ele>558.232483</ele>
        <time>2013-06-15T14:02:57.057Z</time>
      </trkpt>
      <trkpt lat="47.32777" lon="6.85099">
        <ele>560.813354</ele>
        <time>2013-06-15T14:03:13.042Z</time>
      </trkpt>
      <trkpt lat="47.32762" lon="6.85081">
        <ele>562.016174</ele>
        <time>2013-06-15T14:03:31.050Z</time>
      </trkpt>
      <trkpt lat="47.32751" lon="6.85059">
        <ele>564.583923</ele>
        <time>2013-06-15T14:03:49.047Z</time>
      </trkpt>
      <trkpt lat="47.32743" lon="6.85036">
        <ele>565.042297</ele>
        <time>2013-06-15T14:04:02.043Z</time>
      </trkpt>
      <trkpt lat="47.32742" lon="6.85008">
        <ele>565.695496</ele>
        <time>2013-06-15T14:04:14.054Z</time>
      </trkpt>
      <trkpt lat="47.3275" lon="6.84983">
        <ele>566.373535</ele>
        <time>2013-06-15T14:04:22.048Z</time>
      </trkpt>
      <trkpt lat="47.32761" lon="6.8496">
        <ele>566.948242</ele>
        <time>2013-06-15T14:04:34.049Z</time>
      </trkpt>
      <trkpt lat="47.32772" lon="6.84939">
        <ele>566.792358</ele>
        <time>2013-06-15T14:04:43.045Z</time>
      </trkpt>
      <trkpt lat="47.32786" lon="6.84923">
        <ele>568.367859</ele>
        <time>2013-06-15T14:04:54.045Z</time>
      </trkpt>
      <trkpt lat="47.32802" lon="6.84907">
        <ele>572.52832</ele>
        <time>2013-06-15T14:05:12.046Z</time>
      </trkpt>
      <trkpt lat="47.32818" lon="6.84894">
        <ele>578.709961</ele>
        <time>2013-06-15T14:05:26.047Z</time>
      </trkpt>
      <trkpt lat="47.32837" lon="6.84885">
        <ele>586.582153</ele>
        <time>2013-06-15T14:05:42.051Z</time>
      </trkpt>
      <trkpt lat="47.32852" lon="6.8487">
        <ele>589.796692</ele>
        <time>2013-06-15T14:05:52.046Z</time>
      </trkpt>
      <trkpt lat="47.32869" lon="6.84853">
        <ele>592.381348</ele>
        <time>2013-06-15T14:06:02.049Z</time>
      </trkpt>
      <trkpt lat="47.32883" lon="6.84835">
        <ele>593.71344</ele>
        <time>2013-06-15T14:06:09.052Z</time>
      </trkpt>
      <trkpt lat="47.32897" lon="6.84814">
        <ele>594.785156</ele>
        <time>2013-06-15T14:06:23.062Z</time>
      </trkpt>
      <trkpt lat="47.32914" lon="6.848">
        <ele>593.849731</ele>
        <time>2013-06-15T14:06:36.047Z</time>
      </trkpt>
      <trkpt lat="47.32916" lon="6.84827">
        <ele>599.724304</ele>
        <time>2013-06-15T14:09:27.049Z</time>
      </trkpt>
      <trkpt lat="47.32934" lon="6.84834">
        <ele>610.327087</ele>
        <time>2013-06-15T14:10:19.055Z</time>
      </trkpt>
      <trkpt lat="47.32952" lon="6.8483">
        <ele>613.322937</ele>
        <time>2013-06-15T14:10:42.044Z</time>
      </trkpt>
      <trkpt lat="47.32971" lon="6.84829">
        <ele>615.692078</ele>
        <time>2013-06-15T14:11:04.050Z</time>
      </trkpt>
      <trkpt lat="47.3299" lon="6.84833">
        <ele>618.688416</ele>
        <time>2013-06-15T14:11:24.050Z</time>
      </trkpt>
      <trkpt lat="47.33006" lon="6.84846">
        <ele>619.380798</ele>
        <time>2013-06-15T14:11:35.053Z</time>
      </trkpt>
      <trkpt lat="47.33021" lon="6.8486">
        <ele>617.166138</ele>
        <time>2013-06-15T14:12:02.216Z</time>
      </trkpt>
      <trkpt lat="47.33033" lon="6.84881">
        <ele>618.846497</ele>
        <time>2013-06-15T14:12:43.050Z</time>
      </trkpt>
      <trkpt lat="47.33045" lon="6.84902">
        <ele>622.591248</ele>
        <time>2013-06-15T14:13:05.054Z</time>
      </trkpt>
      <trkpt lat="47.33055" lon="6.84924">
        <ele>625.334473</ele>
        <time>2013-06-15T14:13:25.051Z</time>
      </trkpt>
      <trkpt lat="47.33066" lon="6.84947">
        <ele>626.990356</ele>
        <time>2013-06-15T14:13:44.051Z</time>
      </trkpt>
      <trkpt lat="47.33074" lon="6.84972">
        <ele>630.655029</ele>
        <time>2013-06-15T14:14:07.051Z</time>
      </trkpt>
      <trkpt lat="47.33089" lon="6.84989">
        <ele>634.343994</ele>
        <time>2013-06-15T14:14:40.055Z</time>
      </trkpt>
      <trkpt lat="47.33102" lon="6.85008">
        <ele>638.019226</ele>
        <time>2013-06-15T14:15:06.051Z</time>
      </trkpt>
      <trkpt lat="47.33118" lon="6.85021">
        <ele>642.294067</ele>
        <time>2013-06-15T14:15:29.052Z</time>
      </trkpt>
      <trkpt lat="47.33135" lon="6.85033">
        <ele>647.369568</ele>
        <time>2013-06-15T14:15:59.050Z</time>
      </trkpt>
      <trkpt lat="47.33152" lon="6.85041">
        <ele>649.349854</ele>
        <time>2013-06-15T14:16:21.054Z</time>
      </trkpt>
      <trkpt lat="47.33171" lon="6.85047">
        <ele>651.578674</ele>
        <time>2013-06-15T14:16:46.097Z</time>
      </trkpt>
      <trkpt lat="47.33189" lon="6.85047">
        <ele>654.996033</ele>
        <time>2013-06-15T14:17:08.066Z</time>
      </trkpt>
      <trkpt lat="47.33207" lon="6.85044">
        <ele>658.71582</ele>
        <time>2013-06-15T14:17:30.058Z</time>
      </trkpt>
      <trkpt lat="47.33223" lon="6.85031">
        <ele>664.767883</ele>
        <time>2013-06-15T14:17:56.051Z</time>
      </trkpt>
      <trkpt lat="47.33236" lon="6.85013">
        <ele>673.606323</ele>
        <time>2013-06-15T14:18:28.051Z</time>
      </trkpt>
      <trkpt lat="47.33252" lon="6.85027">
        <ele>688.292297</ele>
        <time>2013-06-15T14:19:15.056Z</time>
      </trkpt>
      <trkpt lat="47.33267" lon="6.85045">
        <ele>698.856201</ele>
        <time>2013-06-15T14:19:39.054Z</time>
      </trkpt>
      <trkpt lat="47.33282" lon="6.85062">
        <ele>705.93689</ele>
        <time>2013-06-15T14:19:56.052Z</time>
      </trkpt>
      <trkpt lat="47.33299" lon="6.85069">
        <ele>707.004028</ele>
        <time>2013-06-15T14:20:09.054Z</time>
      </trkpt>
      <trkpt lat="47.33315" lon="6.85084">
        <ele>704.912842</ele>
        <time>2013-06-15T14:20:23.196Z</time>
      </trkpt>
      <trkpt lat="47.33332" lon="6.85095">
        <ele>703.489258</ele>
        <time>2013-06-15T14:20:35.055Z</time>
      </trkpt>
      <trkpt lat="47.33351" lon="6.85103">
        <ele>701.854553</ele>
        <time>2013-06-15T14:20:52.053Z</time>
      </trkpt>
      <trkpt lat="47.33369" lon="6.85112">
        <ele>704.07251</ele>
        <time>2013-06-15T14:21:06.053Z</time>
      </trkpt>
      <trkpt lat="47.33387" lon="6.85117">
        <ele>705.048828</ele>
        <time>2013-06-15T14:21:18.053Z</time>
      </trkpt>
      <trkpt lat="47.33405" lon="6.85128">
        <ele>705.248779</ele>
        <time>2013-06-15T14:21:31.055Z</time>
      </trkpt>
      <trkpt lat="47.33421" lon="6.85143">
        <ele>708.245178</ele>
        <time>2013-06-15T14:21:48.055Z</time>
      </trkpt>
      <trkpt lat="47.33437" lon="6.85156">
        <ele>709.83551</ele>
        <time>2013-06-15T14:22:02.051Z</time>
      </trkpt>
      <trkpt lat="47.33457" lon="6.85167">
        <ele>710.696045</ele>
        <time>2013-06-15T14:22:11.056Z</time>
      </trkpt>
      <trkpt lat="47.33474" lon="6.8518">
        <ele>711.170959</ele>
        <time>2013-06-15T14:22:23.055Z</time>
      </trkpt>
      <trkpt lat="47.3349" lon="6.85193">
        <ele>710.189575</ele>
        <time>2013-06-15T14:22:35.051Z</time>
      </trkpt>
      <trkpt lat="47.33507" lon="6.85183">
        <ele>708.336426</ele>
        <time>2013-06-15T14:22:52.053Z</time>
      </trkpt>
      <trkpt lat="47.33515" lon="6.85157">
        <ele>709.654175</ele>
        <time>2013-06-15T14:23:07.054Z</time>
      </trkpt>
      <trkpt lat="47.33528" lon="6.85135">
        <ele>712.227356</ele>
        <time>2013-06-15T14:23:20.055Z</time>
      </trkpt>
      <trkpt lat="47.33544" lon="6.8512">
        <ele>715.899231</ele>
        <time>2013-06-15T14:23:35.054Z</time>
      </trkpt>
      <trkpt lat="47.33559" lon="6.85103">
        <ele>720.241211</ele>
        <time>2013-06-15T14:23:49.061Z</time>
      </trkpt>
      <trkpt lat="47.33548" lon="6.85079">
        <ele>725.248962</ele>
        <time>2013-06-15T14:27:11.059Z</time>
      </trkpt>
      <trkpt lat="47.33533" lon="6.85062">
        <ele>727.241821</ele>
        <time>2013-06-15T14:27:20.059Z</time>
      </trkpt>
      <trkpt lat="47.33513" lon="6.85052">
        <ele>730.35791</ele>
        <time>2013-06-15T14:27:31.062Z</time>
      </trkpt>
      <trkpt lat="47.33493" lon="6.85049">
        <ele>728.484924</ele>
        <time>2013-06-15T14:27:38.055Z</time>
      </trkpt>
      <trkpt lat="47.33475" lon="6.85047">
        <ele>730.985474</ele>
        <time>2013-06-15T14:27:49.056Z</time>
      </trkpt>
      <trkpt lat="47.33456" lon="6.85049">
        <ele>734.04126</ele>
        <time>2013-06-15T14:27:59.056Z</time>
      </trkpt>
      <trkpt lat="47.33438" lon="6.85056">
        <ele>734.702942</ele>
        <time>2013-06-15T14:28:08.059Z</time>
      </trkpt>
      <trkpt lat="47.33419" lon="6.85061">
        <ele>734.275452</ele>
        <time>2013-06-15T14:28:15.059Z</time>
      </trkpt>
      <trkpt lat="47.33399" lon="6.85061">
        <ele>733.619385</ele>
        <time>2013-06-15T14:28:22.545Z</time>
      </trkpt>
      <trkpt lat="47.33379" lon="6.85052">
        <ele>732.607971</ele>
        <time>2013-06-15T14:28:28.059Z</time>
      </trkpt>
      <trkpt lat="47.33362" lon="6.85041">
        <ele>732.70752</ele>
        <time>2013-06-15T14:28:34.057Z</time>
      </trkpt>
      <trkpt lat="47.33346" lon="6.85027">
        <ele>729.417969</ele>
        <time>2013-06-15T14:28:52.061Z</time>
      </trkpt>
      <trkpt lat="47.33332" lon="6.85008">
        <ele>725.132629</ele>
        <time>2013-06-15T14:29:03.061Z</time>
      </trkpt>
      <trkpt lat="47.33319" lon="6.84988">
        <ele>723.913025</ele>
        <time>2013-06-15T14:29:12.056Z</time>
      </trkpt>
      <trkpt lat="47.33303" lon="6.84968">
        <ele>723.042236</ele>
        <time>2013-06-15T14:29:20.055Z</time>
      </trkpt>
      <trkpt lat="47.33287" lon="6.84949">
        <ele>723.005615</ele>
        <time>2013-06-15T14:29:24.057Z</time>
      </trkpt>
      <trkpt lat="47.33276" lon="6.84926">
        <ele>721.506287</ele>
        <time>2013-06-15T14:29:32.058Z</time>
      </trkpt>
      <trkpt lat="47.33259" lon="6.84912">
        <ele>717.65686</ele>
        <time>2013-06-15T14:29:50.062Z</time>
      </trkpt>
      <trkpt lat="47.33251" lon="6.84885">
        <ele>717.59552</ele>
        <time>2013-06-15T14:29:57.058Z</time>
      </trkpt>
      <trkpt lat="47.33238" lon="6.84865">
        <ele>716.767334</ele>
        <time>2013-06-15T14:30:03.054Z</time>
      </trkpt>
      <trkpt lat="47.33224" lon="6.84844">
        <ele>714.459229</ele>
        <time>2013-06-15T14:30:11.057Z</time>
      </trkpt>
      <trkpt lat="47.33207" lon="6.84824">
        <ele>712.676147</ele>
        <time>2013-06-15T14:30:17.064Z</time>
      </trkpt>
      <trkpt lat="47.33191" lon="6.84809">
        <ele>709.782776</ele>
        <time>2013-06-15T14:30:25.054Z</time>
      </trkpt>
      <trkpt lat="47.33177" lon="6.84791">
        <ele>708.084717</ele>
        <time>2013-06-15T14:30:31.056Z</time>
      </trkpt>
      <trkpt lat="47.33163" lon="6.84767">
        <ele>706.348755</ele>
        <time>2013-06-15T14:30:38.060Z</time>
      </trkpt>
      <trkpt lat="47.33148" lon="6.84747">
        <ele>704.660217</ele>
        <time>2013-06-15T14:30:44.060Z</time>
      </trkpt>
      <trkpt lat="47.33163" lon="6.84729">
        <ele>692.821899</ele>
        <time>2013-06-15T14:31:36.058Z</time>
      </trkpt>
      <trkpt lat="47.33176" lon="6.8471">
        <ele>692.651611</ele>
        <time>2013-06-15T14:31:44.071Z</time>
      </trkpt>
      <trkpt lat="47.33181" lon="6.84681">
        <ele>692.960999</ele>
        <time>2013-06-15T14:31:51.066Z</time>
      </trkpt>
      <trkpt lat="47.33182" lon="6.84653">
        <ele>693.734314</ele>
        <time>2013-06-15T14:32:02.058Z</time>
      </trkpt>
      <trkpt lat="47.33192" lon="6.84629">
        <ele>693.706848</ele>
        <time>2013-06-15T14:32:08.074Z</time>
      </trkpt>
      <trkpt lat="47.332" lon="6.84606">
        <ele>693.246887</ele>
        <time>2013-06-15T14:32:14.059Z</time>
      </trkpt>
      <trkpt lat="47.3321" lon="6.8458">
        <ele>692.365234</ele>
        <time>2013-06-15T14:32:19.061Z</time>
      </trkpt>
      <trkpt lat="47.33212" lon="6.84553">
        <ele>690.814087</ele>
        <time>2013-06-15T14:32:28.060Z</time>
      </trkpt>
      <trkpt lat="47.33207" lon="6.84524">
        <ele>689.665466</ele>
        <time>2013-06-15T14:32:35.067Z</time>
      </trkpt>
      <trkpt lat="47.332" lon="6.84498">
        <ele>688.69519</ele>
        <time>2013-06-15T14:32:39.068Z</time>
      </trkpt>
      <trkpt lat="47.33199" lon="6.8447">
        <ele>687.637634</ele>
        <time>2013-06-15T14:32:43.059Z</time>
      </trkpt>
      <trkpt lat="47.3319" lon="6.84443">
        <ele>686.21637</ele>
        <time>2013-06-15T14:32:48.060Z</time>
      </trkpt>
      <trkpt lat="47.3317" lon="6.84435">
        <ele>683.251038</ele>
        <time>2013-06-15T14:32:56.063Z</time>
      </trkpt>
      <trkpt lat="47.33153" lon="6.84419">
        <ele>680.116211</ele>
        <time>2013-06-15T14:33:03.062Z</time>
      </trkpt>
      <trkpt lat="47.33139" lon="6.84397">
        <ele>675.628418</ele>
        <time>2013-06-15T14:33:16.060Z</time>
      </trkpt>
      <trkpt lat="47.33154" lon="6.84379">
        <ele>657.622009</ele>
        <time>2013-06-15T14:35:51.060Z</time>
      </trkpt>
      <trkpt lat="47.33157" lon="6.84351">
        <ele>657.98938</ele>
        <time>2013-06-15T14:36:01.061Z</time>
      </trkpt>
      <trkpt lat="47.33147" lon="6.84324">
        <ele>660.889526</ele>
        <time>2013-06-15T14:36:12.062Z</time>
      </trkpt>
      <trkpt lat="47.33131" lon="6.84304">
        <ele>661.817627</ele>
        <time>2013-06-15T14:36:17.062Z</time>
      </trkpt>
      <trkpt lat="47.33121" lon="6.84276">
        <ele>661.418457</ele>
        <time>2013-06-15T14:36:23.062Z</time>
      </trkpt>
      <trkpt lat="47.33122" lon="6.84249">
        <ele>660.958801</ele>
        <time>2013-06-15T14:36:29.062Z</time>
      </trkpt>
      <trkpt lat="47.33125" lon="6.84221">
        <ele>659.327271</ele>
        <time>2013-06-15T14:36:37.085Z</time>
      </trkpt>
      <trkpt lat="47.33132" lon="6.84196">
        <ele>658.045166</ele>
        <time>2013-06-15T14:36:44.065Z</time>
      </trkpt>
      <trkpt lat="47.3314" lon="6.84169">
        <ele>656.211731</ele>
        <time>2013-06-15T14:36:50.067Z</time>
      </trkpt>
      <trkpt lat="47.33146" lon="6.84143">
        <ele>654.818237</ele>
        <time>2013-06-15T14:36:55.063Z</time>
      </trkpt>
      <trkpt lat="47.33154" lon="6.84115">
        <ele>653.102661</ele>
        <time>2013-06-15T14:37:01.058Z</time>
      </trkpt>
      <trkpt lat="47.33159" lon="6.84089">
        <ele>651.966797</ele>
        <time>2013-06-15T14:37:06.065Z</time>
      </trkpt>
      <trkpt lat="47.3317" lon="6.84063">
        <ele>650.679199</ele>
        <time>2013-06-15T14:37:10.060Z</time>
      </trkpt>
      <trkpt lat="47.33181" lon="6.84033">
        <ele>649.285095</ele>
        <time>2013-06-15T14:37:15.064Z</time>
      </trkpt>
      <trkpt lat="47.33193" lon="6.8401">
        <ele>648.197449</ele>
        <time>2013-06-15T14:37:18.064Z</time>
      </trkpt>
      <trkpt lat="47.33202" lon="6.83984">
        <ele>646.726196</ele>
        <time>2013-06-15T14:37:24.061Z</time>
      </trkpt>
      <trkpt lat="47.33207" lon="6.83956">
        <ele>645.701843</ele>
        <time>2013-06-15T14:37:31.057Z</time>
      </trkpt>
      <trkpt lat="47.33206" lon="6.83929">
        <ele>645.298096</ele>
        <time>2013-06-15T14:37:38.063Z</time>
      </trkpt>
      <trkpt lat="47.33206" lon="6.83901">
        <ele>645.249146</ele>
        <time>2013-06-15T14:37:43.060Z</time>
      </trkpt>
      <trkpt lat="47.33207" lon="6.83874">
        <ele>644.780762</ele>
        <time>2013-06-15T14:37:48.064Z</time>
      </trkpt>
      <trkpt lat="47.33209" lon="6.83845">
        <ele>643.809814</ele>
        <time>2013-06-15T14:37:55.063Z</time>
      </trkpt>
      <trkpt lat="47.33211" lon="6.83816">
        <ele>643.224121</ele>
        <time>2013-06-15T14:38:03.076Z</time>
      </trkpt>
      <trkpt lat="47.33214" lon="6.83787">
        <ele>643.492126</ele>
        <time>2013-06-15T14:38:16.065Z</time>
      </trkpt>
      <trkpt lat="47.33222" lon="6.83762">
        <ele>641.787598</ele>
        <time>2013-06-15T14:38:48.065Z</time>
      </trkpt>
      <trkpt lat="47.33236" lon="6.83745">
        <ele>644.33844</ele>
        <time>2013-06-15T14:39:01.065Z</time>
      </trkpt>
      <trkpt lat="47.33249" lon="6.83727">
        <ele>645.97998</ele>
        <time>2013-06-15T14:39:16.060Z</time>
      </trkpt>
      <trkpt lat="47.33259" lon="6.83702">
        <ele>650.526794</ele>
        <time>2013-06-15T14:39:29.061Z</time>
      </trkpt>
      <trkpt lat="47.3327" lon="6.8368">
        <ele>655.073242</ele>
        <time>2013-06-15T14:39:43.061Z</time>
      </trkpt>
      <trkpt lat="47.33281" lon="6.83655">
        <ele>655.50708</ele>
        <time>2013-06-15T14:39:53.061Z</time>
      </trkpt>
      <trkpt lat="47.33291" lon="6.83629">
        <ele>655.516235</ele>
        <time>2013-06-15T14:40:03.064Z</time>
      </trkpt>
      <trkpt lat="47.33298" lon="6.83604">
        <ele>656.809937</ele>
        <time>2013-06-15T14:40:12.061Z</time>
      </trkpt>
      <trkpt lat="47.33297" lon="6.83576">
        <ele>658.029236</ele>
        <time>2013-06-15T14:40:22.065Z</time>
      </trkpt>
      <trkpt lat="47.33288" lon="6.83551">
        <ele>658.492615</ele>
        <time>2013-06-15T14:40:35.093Z</time>
      </trkpt>
      <trkpt lat="47.3328" lon="6.83526">
        <ele>659.361572</ele>
        <time>2013-06-15T14:40:44.062Z</time>
      </trkpt>
      <trkpt lat="47.33272" lon="6.83499">
        <ele>661.339233</ele>
        <time>2013-06-15T14:40:57.062Z</time>
      </trkpt>
      <trkpt lat="47.33269" lon="6.83473">
        <ele>661.86969</ele>
        <time>2013-06-15T14:41:05.062Z</time>
      </trkpt>
      <trkpt lat="47.33276" lon="6.83447">
        <ele>661.585083</ele>
        <time>2013-06-15T14:41:17.061Z</time>
      </trkpt>
      <trkpt lat="47.33282" lon="6.83422">
        <ele>661.886963</ele>
        <time>2013-06-15T14:41:32.065Z</time>
      </trkpt>
      <trkpt lat="47.33291" lon="6.83398">
        <ele>661.804321</ele>
        <time>2013-06-15T14:41:44.060Z</time>
      </trkpt>
      <trkpt lat="47.33301" lon="6.83374">
        <ele>661.981018</ele>
        <time>2013-06-15T14:41:56.066Z</time>
      </trkpt>
      <trkpt lat="47.3332" lon="6.83374">
        <ele>664.986145</ele>
        <time>2013-06-15T14:42:39.059Z</time>
      </trkpt>
      <trkpt lat="47.33338" lon="6.83383">
        <ele>665.994629</ele>
        <time>2013-06-15T14:42:48.063Z</time>
      </trkpt>
      <trkpt lat="47.33355" lon="6.83392">
        <ele>666.694336</ele>
        <time>2013-06-15T14:42:56.060Z</time>
      </trkpt>
      <trkpt lat="47.33373" lon="6.83399">
        <ele>668.601807</ele>
        <time>2013-06-15T14:43:05.063Z</time>
      </trkpt>
      <trkpt lat="47.33392" lon="6.83408">
        <ele>670.271545</ele>
        <time>2013-06-15T14:43:14.088Z</time>
      </trkpt>
      <trkpt lat="47.33411" lon="6.83418">
        <ele>671.884338</ele>
        <time>2013-06-15T14:43:23.061Z</time>
      </trkpt>
      <trkpt lat="47.33428" lon="6.83425">
        <ele>673.855591</ele>
        <time>2013-06-15T14:43:32.062Z</time>
      </trkpt>
      <trkpt lat="47.33446" lon="6.83416">
        <ele>675.939331</ele>
        <time>2013-06-15T14:43:47.062Z</time>
      </trkpt>
      <trkpt lat="47.33451" lon="6.83388">
        <ele>677.004211</ele>
        <time>2013-06-15T14:43:56.063Z</time>
      </trkpt>
      <trkpt lat="47.33456" lon="6.83361">
        <ele>677.628662</ele>
        <time>2013-06-15T14:44:07.062Z</time>
      </trkpt>
      <trkpt lat="47.33472" lon="6.83347">
        <ele>677.821045</ele>
        <time>2013-06-15T14:44:18.095Z</time>
      </trkpt>
      <trkpt lat="47.3349" lon="6.83343">
        <ele>677.382385</ele>
        <time>2013-06-15T14:44:28.062Z</time>
      </trkpt>
      <trkpt lat="47.33509" lon="6.83335">
        <ele>677.502747</ele>
        <time>2013-06-15T14:44:40.064Z</time>
      </trkpt>
      <trkpt lat="47.33502" lon="6.83307">
        <ele>677.850525</ele>
        <time>2013-06-15T14:45:16.063Z</time>
      </trkpt>
      <trkpt lat="47.33496" lon="6.8328">
        <ele>678.07666</ele>
        <time>2013-06-15T14:45:23.064Z</time>
      </trkpt>
      <trkpt lat="47.3349" lon="6.83253">
        <ele>678.446106</ele>
        <time>2013-06-15T14:45:30.063Z</time>
      </trkpt>
      <trkpt lat="47.33484" lon="6.83224">
        <ele>678.783203</ele>
        <time>2013-06-15T14:45:37.068Z</time>
      </trkpt>
      <trkpt lat="47.33479" lon="6.83194">
        <ele>678.748413</ele>
        <time>2013-06-15T14:45:43.066Z</time>
      </trkpt>
      <trkpt lat="47.33473" lon="6.83164">
        <ele>678.757446</ele>
        <time>2013-06-15T14:45:49.061Z</time>
      </trkpt>
      <trkpt lat="47.33468" lon="6.83138">
        <ele>678.819031</ele>
        <time>2013-06-15T14:45:54.077Z</time>
      </trkpt>
      <trkpt lat="47.33462" lon="6.83111">
        <ele>678.994812</ele>
        <time>2013-06-15T14:45:59.059Z</time>
      </trkpt>
      <trkpt lat="47.33456" lon="6.8308">
        <ele>679.727356</ele>
        <time>2013-06-15T14:46:04.056Z</time>
      </trkpt>
      <trkpt lat="47.3345" lon="6.83049">
        <ele>680.94873</ele>
        <time>2013-06-15T14:46:09.062Z</time>
      </trkpt>
      <trkpt lat="47.33444" lon="6.83021">
        <ele>681.361755</ele>
        <time>2013-06-15T14:46:13.061Z</time>
      </trkpt>
      <trkpt lat="47.33439" lon="6.82994">
        <ele>681.469238</ele>
        <time>2013-06-15T14:46:17.059Z</time>
      </trkpt>
      <trkpt lat="47.33433" lon="6.82966">
        <ele>681.490601</ele>
        <time>2013-06-15T14:46:22.060Z</time>
      </trkpt>
      <trkpt lat="47.33428" lon="6.8294">
        <ele>681.695801</ele>
        <time>2013-06-15T14:46:28.061Z</time>
      </trkpt>
      <trkpt lat="47.33423" lon="6.82913">
        <ele>681.793396</ele>
        <time>2013-06-15T14:46:34.072Z</time>
      </trkpt>
      <trkpt lat="47.33418" lon="6.82887">
        <ele>681.824402</ele>
        <time>2013-06-15T14:46:39.068Z</time>
      </trkpt>
      <trkpt lat="47.33416" lon="6.8286">
        <ele>681.928589</ele>
        <time>2013-06-15T14:46:44.064Z</time>
      </trkpt>
      <trkpt lat="47.33433" lon="6.82842">
        <ele>682.474365</ele>
        <time>2013-06-15T14:46:50.068Z</time>
      </trkpt>
      <trkpt lat="47.33452" lon="6.82833">
        <ele>683.212036</ele>
        <time>2013-06-15T14:46:56.063Z</time>
      </trkpt>
      <trkpt lat="47.3347" lon="6.82825">
        <ele>684.120422</ele>
        <time>2013-06-15T14:47:02.064Z</time>
      </trkpt>
      <trkpt lat="47.33488" lon="6.82818">
        <ele>685.347778</ele>
        <time>2013-06-15T14:47:09.066Z</time>
      </trkpt>
      <trkpt lat="47.33506" lon="6.8281">
        <ele>686.698486</ele>
        <time>2013-06-15T14:47:16.062Z</time>
      </trkpt>
      <trkpt lat="47.33523" lon="6.82801">
        <ele>687.908386</ele>
        <time>2013-06-15T14:47:23.064Z</time>
      </trkpt>
      <trkpt lat="47.3354" lon="6.82791">
        <ele>688.835876</ele>
        <time>2013-06-15T14:47:29.068Z</time>
      </trkpt>
      <trkpt lat="47.33557" lon="6.82782">
        <ele>689.71991</ele>
        <time>2013-06-15T14:47:35.063Z</time>
      </trkpt>
      <trkpt lat="47.33574" lon="6.82771">
        <ele>690.387085</ele>
        <time>2013-06-15T14:47:40.064Z</time>
      </trkpt>
      <trkpt lat="47.33591" lon="6.82758">
        <ele>690.928467</ele>
        <time>2013-06-15T14:47:44.064Z</time>
      </trkpt>
      <trkpt lat="47.33602" lon="6.82729">
        <ele>691.253113</ele>
        <time>2013-06-15T14:47:49.063Z</time>
      </trkpt>
      <trkpt lat="47.33599" lon="6.82694">
        <ele>691.331665</ele>
        <time>2013-06-15T14:47:53.065Z</time>
      </trkpt>
      <trkpt lat="47.33592" lon="6.82663">
        <ele>691.201538</ele>
        <time>2013-06-15T14:47:56.067Z</time>
      </trkpt>
      <trkpt lat="47.33591" lon="6.82624">
        <ele>690.814697</ele>
        <time>2013-06-15T14:47:59.070Z</time>
      </trkpt>
      <trkpt lat="47.33597" lon="6.82583">
        <ele>690.413696</ele>
        <time>2013-06-15T14:48:02.067Z</time>
      </trkpt>
      <trkpt lat="47.33602" lon="6.82548">
        <ele>689.980042</ele>
        <time>2013-06-15T14:48:05.112Z</time>
      </trkpt>
      <trkpt lat="47.33608" lon="6.82522">
        <ele>689.633423</ele>
        <time>2013-06-15T14:48:08.072Z</time>
      </trkpt>
      <trkpt lat="47.33619" lon="6.82499">
        <ele>689.356445</ele>
        <time>2013-06-15T14:48:12.071Z</time>
      </trkpt>
      <trkpt lat="47.33633" lon="6.82477">
        <ele>689.014771</ele>
        <time>2013-06-15T14:48:17.070Z</time>
      </trkpt>
      <trkpt lat="47.33651" lon="6.82469">
        <ele>688.551025</ele>
        <time>2013-06-15T14:48:22.094Z</time>
      </trkpt>
      <trkpt lat="47.3367" lon="6.82457">
        <ele>687.959961</ele>
        <time>2013-06-15T14:48:28.080Z</time>
      </trkpt>
      <trkpt lat="47.33686" lon="6.82443">
        <ele>687.631836</ele>
        <time>2013-06-15T14:48:33.070Z</time>
      </trkpt>
      <trkpt lat="47.33701" lon="6.82423">
        <ele>687.247559</ele>
        <time>2013-06-15T14:48:38.082Z</time>
      </trkpt>
      <trkpt lat="47.33715" lon="6.824">
        <ele>686.998352</ele>
        <time>2013-06-15T14:48:43.071Z</time>
      </trkpt>
      <trkpt lat="47.33728" lon="6.82374">
        <ele>686.477783</ele>
        <time>2013-06-15T14:48:48.084Z</time>
      </trkpt>
      <trkpt lat="47.33747" lon="6.82364">
        <ele>686.274597</ele>
        <time>2013-06-15T14:48:53.079Z</time>
      </trkpt>
      <trkpt lat="47.33766" lon="6.82363">
        <ele>686.247681</ele>
        <time>2013-06-15T14:48:58.065Z</time>
      </trkpt>
      <trkpt lat="47.33787" lon="6.82361">
        <ele>686.575073</ele>
        <time>2013-06-15T14:49:03.108Z</time>
      </trkpt>
      <trkpt lat="47.3381" lon="6.82357">
        <ele>686.622192</ele>
        <time>2013-06-15T14:49:07.084Z</time>
      </trkpt>
      <trkpt lat="47.33833" lon="6.82354">
        <ele>686.424194</ele>
        <time>2013-06-15T14:49:11.073Z</time>
      </trkpt>
      <trkpt lat="47.33854" lon="6.8235">
        <ele>685.922546</ele>
        <time>2013-06-15T14:49:15.072Z</time>
      </trkpt>
      <trkpt lat="47.33877" lon="6.82346">
        <ele>685.320007</ele>
        <time>2013-06-15T14:49:20.079Z</time>
      </trkpt>
      <trkpt lat="47.33898" lon="6.82344">
        <ele>684.658936</ele>
        <time>2013-06-15T14:49:24.205Z</time>
      </trkpt>
      <trkpt lat="47.33919" lon="6.82329">
        <ele>683.88385</ele>
        <time>2013-06-15T14:49:28.078Z</time>
      </trkpt>
      <trkpt lat="47.33916" lon="6.82298">
        <ele>682.984314</ele>
        <time>2013-06-15T14:49:32.069Z</time>
      </trkpt>
      <trkpt lat="47.3391" lon="6.82269">
        <ele>682.294128</ele>
        <time>2013-06-15T14:49:36.081Z</time>
      </trkpt>
      <trkpt lat="47.33906" lon="6.82241">
        <ele>681.587585</ele>
        <time>2013-06-15T14:49:40.074Z</time>
      </trkpt>
      <trkpt lat="47.33901" lon="6.82212">
        <ele>680.854126</ele>
        <time>2013-06-15T14:49:44.082Z</time>
      </trkpt>
      <trkpt lat="47.33892" lon="6.82181">
        <ele>680.284851</ele>
        <time>2013-06-15T14:49:48.085Z</time>
      </trkpt>
      <trkpt lat="47.33883" lon="6.82157">
        <ele>679.600891</ele>
        <time>2013-06-15T14:49:51.079Z</time>
      </trkpt>
      <trkpt lat="47.33878" lon="6.82126">
        <ele>678.452026</ele>
        <time>2013-06-15T14:49:56.075Z</time>
      </trkpt>
      <trkpt lat="47.33877" lon="6.82099">
        <ele>677.282288</ele>
        <time>2013-06-15T14:50:00.090Z</time>
      </trkpt>
      <trkpt lat="47.33891" lon="6.82082">
        <ele>676.111877</ele>
        <time>2013-06-15T14:50:06.063Z</time>
      </trkpt>
      <trkpt lat="47.3391" lon="6.82073">
        <ele>675.005371</ele>
        <time>2013-06-15T14:50:15.067Z</time>
      </trkpt>
      <trkpt lat="47.33929" lon="6.82059">
        <ele>674.26001</ele>
        <time>2013-06-15T14:50:22.079Z</time>
      </trkpt>
      <trkpt lat="47.33947" lon="6.82044">
        <ele>674.137024</ele>
        <time>2013-06-15T14:50:28.083Z</time>
      </trkpt>
      <trkpt lat="47.33966" lon="6.82046">
        <ele>673.698608</ele>
        <time>2013-06-15T14:50:48.067Z</time>
      </trkpt>
      <trkpt lat="47.33984" lon="6.82058">
        <ele>674.016418</ele>
        <time>2013-06-15T14:50:55.079Z</time>
      </trkpt>
      <trkpt lat="47.34004" lon="6.82074">
        <ele>673.988342</ele>
        <time>2013-06-15T14:51:00.095Z</time>
      </trkpt>
      <trkpt lat="47.34021" lon="6.82093">
        <ele>673.86438</ele>
        <time>2013-06-15T14:51:04.090Z</time>
      </trkpt>
      <trkpt lat="47.34037" lon="6.82108">
        <ele>673.628784</ele>
        <time>2013-06-15T14:51:08.070Z</time>
      </trkpt>
      <trkpt lat="47.34052" lon="6.82125">
        <ele>673.565186</ele>
        <time>2013-06-15T14:51:12.079Z</time>
      </trkpt>
      <trkpt lat="47.34069" lon="6.82146">
        <ele>673.832947</ele>
        <time>2013-06-15T14:51:17.069Z</time>
      </trkpt>
      <trkpt lat="47.34084" lon="6.82166">
        <ele>673.888733</ele>
        <time>2013-06-15T14:51:22.082Z</time>
      </trkpt>
      <trkpt lat="47.341" lon="6.82183">
        <ele>673.971558</ele>
        <time>2013-06-15T14:51:27.074Z</time>
      </trkpt>
      <trkpt lat="47.34117" lon="6.82202">
        <ele>674.265747</ele>
        <time>2013-06-15T14:51:32.086Z</time>
      </trkpt>
      <trkpt lat="47.34135" lon="6.82222">
        <ele>674.099243</ele>
        <time>2013-06-15T14:51:37.081Z</time>
      </trkpt>
      <trkpt lat="47.34152" lon="6.82238">
        <ele>673.862122</ele>
        <time>2013-06-15T14:51:42.068Z</time>
      </trkpt>
      <trkpt lat="47.34169" lon="6.82255">
        <ele>673.582947</ele>
        <time>2013-06-15T14:51:47.086Z</time>
      </trkpt>
      <trkpt lat="47.34183" lon="6.82273">
        <ele>673.072693</ele>
        <time>2013-06-15T14:51:51.086Z</time>
      </trkpt>
      <trkpt lat="47.34197" lon="6.82291">
        <ele>673.002747</ele>
        <time>2013-06-15T14:51:55.073Z</time>
      </trkpt>
      <trkpt lat="47.3421" lon="6.8231">
        <ele>673.177002</ele>
        <time>2013-06-15T14:51:59.083Z</time>
      </trkpt>
      <trkpt lat="47.34223" lon="6.82333">
        <ele>673.556152</ele>
        <time>2013-06-15T14:52:04.079Z</time>
      </trkpt>
      <trkpt lat="47.34236" lon="6.82357">
        <ele>673.842102</ele>
        <time>2013-06-15T14:52:09.083Z</time>
      </trkpt>
      <trkpt lat="47.34249" lon="6.8238">
        <ele>673.936584</ele>
        <time>2013-06-15T14:52:14.072Z</time>
      </trkpt>
      <trkpt lat="47.34263" lon="6.82402">
        <ele>673.928772</ele>
        <time>2013-06-15T14:52:19.085Z</time>
      </trkpt>
      <trkpt lat="47.34274" lon="6.82423">
        <ele>674.279907</ele>
        <time>2013-06-15T14:52:23.071Z</time>
      </trkpt>
      <trkpt lat="47.34288" lon="6.82446">
        <ele>674.367126</ele>
        <time>2013-06-15T14:52:28.087Z</time>
      </trkpt>
      <trkpt lat="47.34304" lon="6.82465">
        <ele>674.384216</ele>
        <time>2013-06-15T14:52:33.074Z</time>
      </trkpt>
      <trkpt lat="47.34324" lon="6.82481">
        <ele>674.263855</ele>
        <time>2013-06-15T14:52:39.088Z</time>
      </trkpt>
      <trkpt lat="47.34342" lon="6.82494">
        <ele>674.81366</ele>
        <time>2013-06-15T14:52:44.082Z</time>
      </trkpt>
      <trkpt lat="47.3436" lon="6.82509">
        <ele>675.485901</ele>
        <time>2013-06-15T14:52:48.073Z</time>
      </trkpt>
      <trkpt lat="47.34376" lon="6.82528">
        <ele>676.005493</ele>
        <time>2013-06-15T14:52:53.069Z</time>
      </trkpt>
      <trkpt lat="47.34394" lon="6.82546">
        <ele>676.132874</ele>
        <time>2013-06-15T14:52:58.071Z</time>
      </trkpt>
      <trkpt lat="47.34414" lon="6.82562">
        <ele>676.538574</ele>
        <time>2013-06-15T14:53:03.098Z</time>
      </trkpt>
      <trkpt lat="47.34433" lon="6.82573">
        <ele>676.887085</ele>
        <time>2013-06-15T14:53:08.079Z</time>
      </trkpt>
      <trkpt lat="47.34453" lon="6.82584">
        <ele>677.504395</ele>
        <time>2013-06-15T14:53:13.071Z</time>
      </trkpt>
      <trkpt lat="47.34473" lon="6.82593">
        <ele>678.235046</ele>
        <time>2013-06-15T14:53:19.085Z</time>
      </trkpt>
      <trkpt lat="47.34492" lon="6.82604">
        <ele>678.975159</ele>
        <time>2013-06-15T14:53:25.085Z</time>
      </trkpt>
      <trkpt lat="47.34509" lon="6.82615">
        <ele>679.421143</ele>
        <time>2013-06-15T14:53:31.081Z</time>
      </trkpt>
      <trkpt lat="47.34525" lon="6.82627">
        <ele>680.866516</ele>
        <time>2013-06-15T14:53:38.089Z</time>
      </trkpt>
      <trkpt lat="47.34543" lon="6.82644">
        <ele>681.660767</ele>
        <time>2013-06-15T14:53:45.068Z</time>
      </trkpt>
      <trkpt lat="47.3456" lon="6.8266">
        <ele>682.657288</ele>
        <time>2013-06-15T14:53:52.091Z</time>
      </trkpt>
      <trkpt lat="47.34577" lon="6.82677">
        <ele>683.871277</ele>
        <time>2013-06-15T14:53:59.076Z</time>
      </trkpt>
      <trkpt lat="47.34592" lon="6.82696">
        <ele>684.704651</ele>
        <time>2013-06-15T14:54:05.079Z</time>
      </trkpt>
      <trkpt lat="47.34607" lon="6.82719">
        <ele>685.695801</ele>
        <time>2013-06-15T14:54:13.072Z</time>
      </trkpt>
      <trkpt lat="47.34622" lon="6.82738">
        <ele>686.387756</ele>
        <time>2013-06-15T14:54:18.119Z</time>
      </trkpt>
      <trkpt lat="47.34635" lon="6.82754">
        <ele>686.943115</ele>
        <time>2013-06-15T14:54:24.080Z</time>
      </trkpt>
      <trkpt lat="47.3465" lon="6.8277">
        <ele>688.132324</ele>
        <time>2013-06-15T14:54:31.085Z</time>
      </trkpt>
      <trkpt lat="47.34665" lon="6.82749">
        <ele>689.146057</ele>
        <time>2013-06-15T14:54:38.070Z</time>
      </trkpt>
      <trkpt lat="47.34667" lon="6.82721">
        <ele>690.224548</ele>
        <time>2013-06-15T14:54:45.074Z</time>
      </trkpt>
      <trkpt lat="47.34681" lon="6.82703">
        <ele>700.483521</ele>
        <time>2013-06-15T14:55:38.086Z</time>
      </trkpt>
      <trkpt lat="47.34702" lon="6.82706">
        <ele>700.39679</ele>
        <time>2013-06-15T14:55:43.071Z</time>
      </trkpt>
      <trkpt lat="47.3472" lon="6.82713">
        <ele>700.002563</ele>
        <time>2013-06-15T14:55:48.071Z</time>
      </trkpt>
      <trkpt lat="47.3474" lon="6.82724">
        <ele>699.682007</ele>
        <time>2013-06-15T14:55:54.068Z</time>
      </trkpt>
      <trkpt lat="47.3476" lon="6.82736">
        <ele>699.345032</ele>
        <time>2013-06-15T14:56:00.092Z</time>
      </trkpt>
      <trkpt lat="47.34777" lon="6.82745">
        <ele>698.804382</ele>
        <time>2013-06-15T14:56:06.068Z</time>
      </trkpt>
      <trkpt lat="47.34795" lon="6.82754">
        <ele>698.097717</ele>
        <time>2013-06-15T14:56:12.067Z</time>
      </trkpt>
      <trkpt lat="47.34814" lon="6.82765">
        <ele>697.188232</ele>
        <time>2013-06-15T14:56:19.070Z</time>
      </trkpt>
      <trkpt lat="47.34832" lon="6.82777">
        <ele>696.489929</ele>
        <time>2013-06-15T14:56:26.073Z</time>
      </trkpt>
      <trkpt lat="47.34849" lon="6.82787">
        <ele>696.219666</ele>
        <time>2013-06-15T14:56:33.071Z</time>
      </trkpt>
      <trkpt lat="47.34866" lon="6.82798">
        <ele>696.908936</ele>
        <time>2013-06-15T14:56:40.068Z</time>
      </trkpt>
      <trkpt lat="47.34884" lon="6.82808">
        <ele>698.163635</ele>
        <time>2013-06-15T14:56:48.082Z</time>
      </trkpt>
      <trkpt lat="47.34903" lon="6.82819">
        <ele>699.418457</ele>
        <time>2013-06-15T14:56:56.068Z</time>
      </trkpt>
      <trkpt lat="47.34921" lon="6.82828">
        <ele>700.658203</ele>
        <time>2013-06-15T14:57:04.068Z</time>
      </trkpt>
      <trkpt lat="47.34937" lon="6.82839">
        <ele>701.917419</ele>
        <time>2013-06-15T14:57:12.067Z</time>
      </trkpt>
      <trkpt lat="47.34956" lon="6.82849">
        <ele>703.445618</ele>
        <time>2013-06-15T14:57:21.065Z</time>
      </trkpt>
      <trkpt lat="47.34974" lon="6.82861">
        <ele>705.008423</ele>
        <time>2013-06-15T14:57:30.069Z</time>
      </trkpt>
      <trkpt lat="47.34992" lon="6.82873">
        <ele>706.535767</ele>
        <time>2013-06-15T14:57:39.058Z</time>
      </trkpt>
      <trkpt lat="47.3501" lon="6.82882">
        <ele>708.278137</ele>
        <time>2013-06-15T14:57:48.065Z</time>
      </trkpt>
      <trkpt lat="47.35029" lon="6.82891">
        <ele>710.12439</ele>
        <time>2013-06-15T14:57:57.064Z</time>
      </trkpt>
      <trkpt lat="47.35045" lon="6.82877">
        <ele>712.03241</ele>
        <time>2013-06-15T14:58:08.069Z</time>
      </trkpt>
      <trkpt lat="47.35062" lon="6.82863">
        <ele>714.326233</ele>
        <time>2013-06-15T14:58:20.074Z</time>
      </trkpt>
      <trkpt lat="47.35081" lon="6.82855">
        <ele>716.433838</ele>
        <time>2013-06-15T14:58:32.071Z</time>
      </trkpt>
      <trkpt lat="47.35099" lon="6.82853">
        <ele>718.138794</ele>
        <time>2013-06-15T14:58:43.067Z</time>
      </trkpt>
      <trkpt lat="47.35117" lon="6.82847">
        <ele>719.586548</ele>
        <time>2013-06-15T14:58:55.069Z</time>
      </trkpt>
      <trkpt lat="47.35136" lon="6.82837">
        <ele>721.789368</ele>
        <time>2013-06-15T14:59:07.369Z</time>
      </trkpt>
      <trkpt lat="47.35154" lon="6.82834">
        <ele>723.607605</ele>
        <time>2013-06-15T14:59:18.073Z</time>
      </trkpt>
      <trkpt lat="47.35172" lon="6.82833">
        <ele>725.707886</ele>
        <time>2013-06-15T14:59:29.070Z</time>
      </trkpt>
      <trkpt lat="47.3519" lon="6.82829">
        <ele>727.709106</ele>
        <time>2013-06-15T14:59:40.069Z</time>
      </trkpt>
      <trkpt lat="47.35201" lon="6.82806">
        <ele>730.00824</ele>
        <time>2013-06-15T14:59:51.070Z</time>
      </trkpt>
      <trkpt lat="47.352" lon="6.82779">
        <ele>731.290588</ele>
        <time>2013-06-15T14:59:59.070Z</time>
      </trkpt>
      <trkpt lat="47.35201" lon="6.82747">
        <ele>732.109741</ele>
        <time>2013-06-15T15:00:05.070Z</time>
      </trkpt>
      <trkpt lat="47.35201" lon="6.82718">
        <ele>732.943542</ele>
        <time>2013-06-15T15:00:10.069Z</time>
      </trkpt>
      <trkpt lat="47.35201" lon="6.8269">
        <ele>733.654358</ele>
        <time>2013-06-15T15:00:15.070Z</time>
      </trkpt>
      <trkpt lat="47.35199" lon="6.8266">
        <ele>734.307678</ele>
        <time>2013-06-15T15:00:20.068Z</time>
      </trkpt>
      <trkpt lat="47.35199" lon="6.82633">
        <ele>734.542786</ele>
        <time>2013-06-15T15:00:24.071Z</time>
      </trkpt>
      <trkpt lat="47.35198" lon="6.82601">
        <ele>734.765442</ele>
        <time>2013-06-15T15:00:28.070Z</time>
      </trkpt>
      <trkpt lat="47.35197" lon="6.82568">
        <ele>734.913025</ele>
        <time>2013-06-15T15:00:32.072Z</time>
      </trkpt>
      <trkpt lat="47.35197" lon="6.82541">
        <ele>735.182983</ele>
        <time>2013-06-15T15:00:36.074Z</time>
      </trkpt>
      <trkpt lat="47.35193" lon="6.82513">
        <ele>735.588013</ele>
        <time>2013-06-15T15:00:41.074Z</time>
      </trkpt>
      <trkpt lat="47.35192" lon="6.82485">
        <ele>735.990356</ele>
        <time>2013-06-15T15:00:47.072Z</time>
      </trkpt>
      <trkpt lat="47.35202" lon="6.82459">
        <ele>736.524841</ele>
        <time>2013-06-15T15:00:54.083Z</time>
      </trkpt>
      <trkpt lat="47.35219" lon="6.82443">
        <ele>737.241089</ele>
        <time>2013-06-15T15:01:01.071Z</time>
      </trkpt>
      <trkpt lat="47.35234" lon="6.82427">
        <ele>737.934875</ele>
        <time>2013-06-15T15:01:09.074Z</time>
      </trkpt>
      <trkpt lat="47.35247" lon="6.82405">
        <ele>739.032959</ele>
        <time>2013-06-15T15:01:19.070Z</time>
      </trkpt>
      <trkpt lat="47.35252" lon="6.82378">
        <ele>740.389832</ele>
        <time>2013-06-15T15:01:28.071Z</time>
      </trkpt>
      <trkpt lat="47.35258" lon="6.82351">
        <ele>742.552307</ele>
        <time>2013-06-15T15:01:39.070Z</time>
      </trkpt>
      <trkpt lat="47.35263" lon="6.82325">
        <ele>744.399902</ele>
        <time>2013-06-15T15:01:49.073Z</time>
      </trkpt>
      <trkpt lat="47.35269" lon="6.82298">
        <ele>745.566833</ele>
        <time>2013-06-15T15:01:57.072Z</time>
      </trkpt>
      <trkpt lat="47.35277" lon="6.82275">
        <ele>746.537598</ele>
        <time>2013-06-15T15:02:06.087Z</time>
      </trkpt>
      <trkpt lat="47.35286" lon="6.82252">
        <ele>746.980652</ele>
        <time>2013-06-15T15:02:16.072Z</time>
      </trkpt>
      <trkpt lat="47.35296" lon="6.82229">
        <ele>747.553223</ele>
        <time>2013-06-15T15:02:27.070Z</time>
      </trkpt>
      <trkpt lat="47.35307" lon="6.82207">
        <ele>747.755188</ele>
        <time>2013-06-15T15:02:38.071Z</time>
      </trkpt>
      <trkpt lat="47.35317" lon="6.82182">
        <ele>747.789795</ele>
        <time>2013-06-15T15:02:51.084Z</time>
      </trkpt>
      <trkpt lat="47.35325" lon="6.82159">
        <ele>748.143555</ele>
        <time>2013-06-15T15:03:03.070Z</time>
      </trkpt>
      <trkpt lat="47.35335" lon="6.82135">
        <ele>749.346191</ele>
        <time>2013-06-15T15:03:16.376Z</time>
      </trkpt>
      <trkpt lat="47.35345" lon="6.82112">
        <ele>750.884949</ele>
        <time>2013-06-15T15:03:28.070Z</time>
      </trkpt>
      <trkpt lat="47.35351" lon="6.82087">
        <ele>752.105652</ele>
        <time>2013-06-15T15:03:41.068Z</time>
      </trkpt>
      <trkpt lat="47.35364" lon="6.82069">
        <ele>754.546448</ele>
        <time>2013-06-15T15:06:30.072Z</time>
      </trkpt>
      <trkpt lat="47.35373" lon="6.82046">
        <ele>754.68158</ele>
        <time>2013-06-15T15:06:45.076Z</time>
      </trkpt>
      <trkpt lat="47.35385" lon="6.82023">
        <ele>755.187012</ele>
        <time>2013-06-15T15:06:55.075Z</time>
      </trkpt>
      <trkpt lat="47.35393" lon="6.81999">
        <ele>755.833557</ele>
        <time>2013-06-15T15:07:04.072Z</time>
      </trkpt>
      <trkpt lat="47.35404" lon="6.81976">
        <ele>755.977661</ele>
        <time>2013-06-15T15:07:14.070Z</time>
      </trkpt>
      <trkpt lat="47.35413" lon="6.81951">
        <ele>755.687439</ele>
        <time>2013-06-15T15:07:23.075Z</time>
      </trkpt>
      <trkpt lat="47.35423" lon="6.81926">
        <ele>755.829224</ele>
        <time>2013-06-15T15:07:33.072Z</time>
      </trkpt>
      <trkpt lat="47.35433" lon="6.81903">
        <ele>756.231262</ele>
        <time>2013-06-15T15:07:43.079Z</time>
      </trkpt>
      <trkpt lat="47.35443" lon="6.8188">
        <ele>756.651794</ele>
        <time>2013-06-15T15:08:03.072Z</time>
      </trkpt>
      <trkpt lat="47.35456" lon="6.81861">
        <ele>757.311279</ele>
        <time>2013-06-15T15:08:14.072Z</time>
      </trkpt>
      <trkpt lat="47.35469" lon="6.81841">
        <ele>757.907349</ele>
        <time>2013-06-15T15:08:25.072Z</time>
      </trkpt>
      <trkpt lat="47.35467" lon="6.81814">
        <ele>758.301697</ele>
        <time>2013-06-15T15:09:43.072Z</time>
      </trkpt>
      <trkpt lat="47.35448" lon="6.81805">
        <ele>757.910889</ele>
        <time>2013-06-15T15:09:50.076Z</time>
      </trkpt>
      <trkpt lat="47.35431" lon="6.81796">
        <ele>757.227173</ele>
        <time>2013-06-15T15:09:56.072Z</time>
      </trkpt>
      <trkpt lat="47.35412" lon="6.81787">
        <ele>756.907959</ele>
        <time>2013-06-15T15:10:01.071Z</time>
      </trkpt>
      <trkpt lat="47.35394" lon="6.8178">
        <ele>756.529175</ele>
        <time>2013-06-15T15:10:05.083Z</time>
      </trkpt>
      <trkpt lat="47.35382" lon="6.81756">
        <ele>755.081726</ele>
        <time>2013-06-15T15:10:11.072Z</time>
      </trkpt>
      <trkpt lat="47.35385" lon="6.8173">
        <ele>754.104492</ele>
        <time>2013-06-15T15:10:16.085Z</time>
      </trkpt>
      <trkpt lat="47.35389" lon="6.81701">
        <ele>752.736389</ele>
        <time>2013-06-15T15:10:23.099Z</time>
      </trkpt>
      <trkpt lat="47.35392" lon="6.81672">
        <ele>751.729187</ele>
        <time>2013-06-15T15:10:30.428Z</time>
      </trkpt>
      <trkpt lat="47.35394" lon="6.81645">
        <ele>750.241943</ele>
        <time>2013-06-15T15:10:36.085Z</time>
      </trkpt>
      <trkpt lat="47.35395" lon="6.81617">
        <ele>747.99292</ele>
        <time>2013-06-15T15:10:43.073Z</time>
      </trkpt>
      <trkpt lat="47.35389" lon="6.81592">
        <ele>745.341919</ele>
        <time>2013-06-15T15:10:51.073Z</time>
      </trkpt>
      <trkpt lat="47.35369" lon="6.81578">
        <ele>743.389648</ele>
        <time>2013-06-15T15:10:57.086Z</time>
      </trkpt>
      <trkpt lat="47.35351" lon="6.81579">
        <ele>742.154541</ele>
        <time>2013-06-15T15:11:01.085Z</time>
      </trkpt>
      <trkpt lat="47.35332" lon="6.81581">
        <ele>740.945679</ele>
        <time>2013-06-15T15:11:05.084Z</time>
      </trkpt>
      <trkpt lat="47.35313" lon="6.81588">
        <ele>739.846985</ele>
        <time>2013-06-15T15:11:09.083Z</time>
      </trkpt>
      <trkpt lat="47.35294" lon="6.81581">
        <ele>738.36853</ele>
        <time>2013-06-15T15:11:14.074Z</time>
      </trkpt>
      <trkpt lat="47.35284" lon="6.81552">
        <ele>736.390808</ele>
        <time>2013-06-15T15:11:20.089Z</time>
      </trkpt>
      <trkpt lat="47.35292" lon="6.81528">
        <ele>734.574829</ele>
        <time>2013-06-15T15:11:25.082Z</time>
      </trkpt>
      <trkpt lat="47.35311" lon="6.8152">
        <ele>731.878235</ele>
        <time>2013-06-15T15:11:32.085Z</time>
      </trkpt>
      <trkpt lat="47.35324" lon="6.815">
        <ele>729.338135</ele>
        <time>2013-06-15T15:11:40.074Z</time>
      </trkpt>
      <trkpt lat="47.35337" lon="6.8148">
        <ele>726.985413</ele>
        <time>2013-06-15T15:11:49.071Z</time>
      </trkpt>
      <trkpt lat="47.35352" lon="6.81463">
        <ele>725.671387</ele>
        <time>2013-06-15T15:11:57.071Z</time>
      </trkpt>
      <trkpt lat="47.35367" lon="6.81447">
        <ele>725.134338</ele>
        <time>2013-06-15T15:12:05.082Z</time>
      </trkpt>
      <trkpt lat="47.35378" lon="6.81424">
        <ele>725.352661</ele>
        <time>2013-06-15T15:12:14.104Z</time>
      </trkpt>
      <trkpt lat="47.35384" lon="6.81397">
        <ele>726.429749</ele>
        <time>2013-06-15T15:12:23.071Z</time>
      </trkpt>
      <trkpt lat="47.35389" lon="6.81371">
        <ele>727.849731</ele>
        <time>2013-06-15T15:12:32.072Z</time>
      </trkpt>
      <trkpt lat="47.35394" lon="6.81345">
        <ele>729.392639</ele>
        <time>2013-06-15T15:12:41.071Z</time>
      </trkpt>
      <trkpt lat="47.35399" lon="6.81317">
        <ele>730.925659</ele>
        <time>2013-06-15T15:12:50.085Z</time>
      </trkpt>
      <trkpt lat="47.35404" lon="6.81291">
        <ele>732.477417</ele>
        <time>2013-06-15T15:12:59.067Z</time>
      </trkpt>
      <trkpt lat="47.35412" lon="6.81265">
        <ele>734.245972</ele>
        <time>2013-06-15T15:13:09.066Z</time>
      </trkpt>
      <trkpt lat="47.35422" lon="6.8124">
        <ele>735.902588</ele>
        <time>2013-06-15T15:13:19.071Z</time>
      </trkpt>
      <trkpt lat="47.35435" lon="6.81219">
        <ele>737.691833</ele>
        <time>2013-06-15T15:13:29.067Z</time>
      </trkpt>
      <trkpt lat="47.35447" lon="6.81198">
        <ele>739.024963</ele>
        <time>2013-06-15T15:13:38.084Z</time>
      </trkpt>
      <trkpt lat="47.35459" lon="6.81177">
        <ele>740.596436</ele>
        <time>2013-06-15T15:13:48.077Z</time>
      </trkpt>
      <trkpt lat="47.35472" lon="6.81156">
        <ele>741.680664</ele>
        <time>2013-06-15T15:13:58.071Z</time>
      </trkpt>
      <trkpt lat="47.35486" lon="6.81138">
        <ele>742.759827</ele>
        <time>2013-06-15T15:14:07.093Z</time>
      </trkpt>
      <trkpt lat="47.35501" lon="6.81123">
        <ele>744.01532</ele>
        <time>2013-06-15T15:14:16.072Z</time>
      </trkpt>
      <trkpt lat="47.35517" lon="6.81109">
        <ele>745.445129</ele>
        <time>2013-06-15T15:14:25.082Z</time>
      </trkpt>
      <trkpt lat="47.35535" lon="6.81097">
        <ele>747.070251</ele>
        <time>2013-06-15T15:14:35.092Z</time>
      </trkpt>
      <trkpt lat="47.35552" lon="6.81087">
        <ele>748.675232</ele>
        <time>2013-06-15T15:14:44.071Z</time>
      </trkpt>
      <trkpt lat="47.35572" lon="6.81083">
        <ele>750.449341</ele>
        <time>2013-06-15T15:14:53.073Z</time>
      </trkpt>
      <trkpt lat="47.3559" lon="6.81079">
        <ele>752.116455</ele>
        <time>2013-06-15T15:15:01.073Z</time>
      </trkpt>
      <trkpt lat="47.35611" lon="6.8108">
        <ele>753.89856</ele>
        <time>2013-06-15T15:15:10.082Z</time>
      </trkpt>
      <trkpt lat="47.35629" lon="6.81085">
        <ele>755.971375</ele>
        <time>2013-06-15T15:15:19.087Z</time>
      </trkpt>
      <trkpt lat="47.35649" lon="6.81087">
        <ele>757.435547</ele>
        <time>2013-06-15T15:15:27.071Z</time>
      </trkpt>
      <trkpt lat="47.35667" lon="6.81093">
        <ele>758.766968</ele>
        <time>2013-06-15T15:15:35.084Z</time>
      </trkpt>
      <trkpt lat="47.35686" lon="6.81102">
        <ele>759.822144</ele>
        <time>2013-06-15T15:15:43.073Z</time>
      </trkpt>
      <trkpt lat="47.35705" lon="6.81113">
        <ele>760.730774</ele>
        <time>2013-06-15T15:15:50.087Z</time>
      </trkpt>
      <trkpt lat="47.35722" lon="6.81127">
        <ele>761.293518</ele>
        <time>2013-06-15T15:15:56.084Z</time>
      </trkpt>
      <trkpt lat="47.35737" lon="6.81144">
        <ele>761.958191</ele>
        <time>2013-06-15T15:16:02.073Z</time>
      </trkpt>
      <trkpt lat="47.35751" lon="6.81164">
        <ele>763.121765</ele>
        <time>2013-06-15T15:16:10.084Z</time>
      </trkpt>
      <trkpt lat="47.35764" lon="6.81183">
        <ele>764.442383</ele>
        <time>2013-06-15T15:16:19.084Z</time>
      </trkpt>
      <trkpt lat="47.35784" lon="6.81186">
        <ele>772.355164</ele>
        <time>2013-06-15T15:17:09.071Z</time>
      </trkpt>
      <trkpt lat="47.35803" lon="6.81194">
        <ele>772.636597</ele>
        <time>2013-06-15T15:17:16.405Z</time>
      </trkpt>
      <trkpt lat="47.35822" lon="6.81187">
        <ele>772.096252</ele>
        <time>2013-06-15T15:17:23.088Z</time>
      </trkpt>
      <trkpt lat="47.35837" lon="6.8117">
        <ele>772.482849</ele>
        <time>2013-06-15T15:17:30.083Z</time>
      </trkpt>
      <trkpt lat="47.35848" lon="6.81147">
        <ele>771.509644</ele>
        <time>2013-06-15T15:17:38.076Z</time>
      </trkpt>
      <trkpt lat="47.35861" lon="6.81125">
        <ele>770.690979</ele>
        <time>2013-06-15T15:17:45.084Z</time>
      </trkpt>
      <trkpt lat="47.35876" lon="6.81104">
        <ele>770.279358</ele>
        <time>2013-06-15T15:17:52.074Z</time>
      </trkpt>
      <trkpt lat="47.3589" lon="6.81084">
        <ele>769.515564</ele>
        <time>2013-06-15T15:17:59.082Z</time>
      </trkpt>
      <trkpt lat="47.35904" lon="6.81063">
        <ele>768.903625</ele>
        <time>2013-06-15T15:18:07.086Z</time>
      </trkpt>
      <trkpt lat="47.35919" lon="6.81045">
        <ele>768.838928</ele>
        <time>2013-06-15T15:18:15.085Z</time>
      </trkpt>
      <trkpt lat="47.35936" lon="6.81036">
        <ele>769.723145</ele>
        <time>2013-06-15T15:18:24.083Z</time>
      </trkpt>
      <trkpt lat="47.35955" lon="6.81026">
        <ele>769.826294</ele>
        <time>2013-06-15T15:18:31.088Z</time>
      </trkpt>
      <trkpt lat="47.35973" lon="6.8102">
        <ele>770.835632</ele>
        <time>2013-06-15T15:18:41.093Z</time>
      </trkpt>
      <trkpt lat="47.35991" lon="6.81011">
        <ele>772.893799</ele>
        <time>2013-06-15T15:19:01.088Z</time>
      </trkpt>
      <trkpt lat="47.36006" lon="6.80996">
        <ele>773.577881</ele>
        <time>2013-06-15T15:19:08.084Z</time>
      </trkpt>
      <trkpt lat="47.3602" lon="6.80975">
        <ele>774.04248</ele>
        <time>2013-06-15T15:19:15.088Z</time>
      </trkpt>
      <trkpt lat="47.36032" lon="6.80953">
        <ele>774.077759</ele>
        <time>2013-06-15T15:19:23.101Z</time>
      </trkpt>
      <trkpt lat="47.36041" lon="6.8093">
        <ele>774.610901</ele>
        <time>2013-06-15T15:19:31.084Z</time>
      </trkpt>
      <trkpt lat="47.36052" lon="6.80907">
        <ele>775.065063</ele>
        <time>2013-06-15T15:19:40.085Z</time>
      </trkpt>
      <trkpt lat="47.36064" lon="6.80884">
        <ele>775.580444</ele>
        <time>2013-06-15T15:19:48.091Z</time>
      </trkpt>
      <trkpt lat="47.36074" lon="6.80861">
        <ele>776.02301</ele>
        <time>2013-06-15T15:20:01.082Z</time>
      </trkpt>
      <trkpt lat="47.36088" lon="6.80843">
        <ele>776.477417</ele>
        <time>2013-06-15T15:20:14.086Z</time>
      </trkpt>
      <trkpt lat="47.36103" lon="6.80826">
        <ele>776.807556</ele>
        <time>2013-06-15T15:20:25.073Z</time>
      </trkpt>
      <trkpt lat="47.36118" lon="6.80807">
        <ele>776.892578</ele>
        <time>2013-06-15T15:20:35.073Z</time>
      </trkpt>
      <trkpt lat="47.36131" lon="6.80787">
        <ele>777.21875</ele>
        <time>2013-06-15T15:20:56.080Z</time>
      </trkpt>
      <trkpt lat="47.36144" lon="6.80766">
        <ele>777.244019</ele>
        <time>2013-06-15T15:21:06.072Z</time>
      </trkpt>
      <trkpt lat="47.36154" lon="6.80743">
        <ele>777.190918</ele>
        <time>2013-06-15T15:21:14.092Z</time>
      </trkpt>
      <trkpt lat="47.36163" lon="6.80716">
        <ele>776.880737</ele>
        <time>2013-06-15T15:21:20.213Z</time>
      </trkpt>
      <trkpt lat="47.36174" lon="6.80693">
        <ele>776.866333</ele>
        <time>2013-06-15T15:21:26.087Z</time>
      </trkpt>
      <trkpt lat="47.36184" lon="6.8067">
        <ele>777.106873</ele>
        <time>2013-06-15T15:21:32.074Z</time>
      </trkpt>
      <trkpt lat="47.36195" lon="6.80647">
        <ele>776.804932</ele>
        <time>2013-06-15T15:21:37.085Z</time>
      </trkpt>
      <trkpt lat="47.36207" lon="6.80626">
        <ele>776.609863</ele>
        <time>2013-06-15T15:21:42.084Z</time>
      </trkpt>
      <trkpt lat="47.36217" lon="6.80604">
        <ele>776.994019</ele>
        <time>2013-06-15T15:21:49.084Z</time>
      </trkpt>
      <trkpt lat="47.36227" lon="6.8058">
        <ele>777.715271</ele>
        <time>2013-06-15T15:21:57.086Z</time>
      </trkpt>
      <trkpt lat="47.36239" lon="6.80557">
        <ele>779.003784</ele>
        <time>2013-06-15T15:22:07.090Z</time>
      </trkpt>
      <trkpt lat="47.36252" lon="6.80536">
        <ele>780.038513</ele>
        <time>2013-06-15T15:22:14.099Z</time>
      </trkpt>
      <trkpt lat="47.36263" lon="6.80512">
        <ele>781.815308</ele>
        <time>2013-06-15T15:22:24.091Z</time>
      </trkpt>
      <trkpt lat="47.36275" lon="6.80487">
        <ele>783.313599</ele>
        <time>2013-06-15T15:22:33.090Z</time>
      </trkpt>
      <trkpt lat="47.36288" lon="6.80464">
        <ele>784.931091</ele>
        <time>2013-06-15T15:22:41.089Z</time>
      </trkpt>
      <trkpt lat="47.363" lon="6.80442">
        <ele>787.545959</ele>
        <time>2013-06-15T15:22:57.089Z</time>
      </trkpt>
      <trkpt lat="47.36312" lon="6.8042">
        <ele>787.773193</ele>
        <time>2013-06-15T15:23:02.092Z</time>
      </trkpt>
      <trkpt lat="47.36325" lon="6.80401">
        <ele>787.920044</ele>
        <time>2013-06-15T15:23:09.092Z</time>
      </trkpt>
      <trkpt lat="47.36336" lon="6.80377">
        <ele>788.635315</ele>
        <time>2013-06-15T15:23:19.093Z</time>
      </trkpt>
      <trkpt lat="47.36347" lon="6.80355">
        <ele>789.899658</ele>
        <time>2013-06-15T15:23:27.088Z</time>
      </trkpt>
      <trkpt lat="47.36356" lon="6.80331">
        <ele>791.276001</ele>
        <time>2013-06-15T15:23:36.152Z</time>
      </trkpt>
      <trkpt lat="47.36364" lon="6.80307">
        <ele>792.892761</ele>
        <time>2013-06-15T15:23:44.098Z</time>
      </trkpt>
      <trkpt lat="47.36369" lon="6.80282">
        <ele>792.349731</ele>
        <time>2013-06-15T15:23:58.090Z</time>
      </trkpt>
      <trkpt lat="47.36376" lon="6.80255">
        <ele>785.96167</ele>
        <time>2013-06-15T15:24:51.092Z</time>
      </trkpt>
      <trkpt lat="47.36386" lon="6.80229">
        <ele>785.470337</ele>
        <time>2013-06-15T15:24:58.085Z</time>
      </trkpt>
      <trkpt lat="47.36396" lon="6.80203">
        <ele>785.2724</ele>
        <time>2013-06-15T15:25:02.090Z</time>
      </trkpt>
      <trkpt lat="47.36404" lon="6.80171">
        <ele>784.947205</ele>
        <time>2013-06-15T15:25:05.097Z</time>
      </trkpt>
      <trkpt lat="47.36412" lon="6.80135">
        <ele>784.324524</ele>
        <time>2013-06-15T15:25:08.094Z</time>
      </trkpt>
      <trkpt lat="47.36415" lon="6.80099">
        <ele>783.89209</ele>
        <time>2013-06-15T15:25:11.836Z</time>
      </trkpt>
      <trkpt lat="47.36417" lon="6.80063">
        <ele>783.384033</ele>
        <time>2013-06-15T15:25:14.088Z</time>
      </trkpt>
      <trkpt lat="47.3642" lon="6.80032">
        <ele>782.650269</ele>
        <time>2013-06-15T15:25:17.087Z</time>
      </trkpt>
      <trkpt lat="47.36431" lon="6.8001">
        <ele>781.112061</ele>
        <time>2013-06-15T15:25:22.087Z</time>
      </trkpt>
      <trkpt lat="47.36432" lon="6.79983">
        <ele>771.81781</ele>
        <time>2013-06-15T15:25:56.089Z</time>
      </trkpt>
      <trkpt lat="47.36434" lon="6.79954">
        <ele>770.279297</ele>
        <time>2013-06-15T15:26:41.081Z</time>
      </trkpt>
      <trkpt lat="47.36434" lon="6.79926">
        <ele>770.694702</ele>
        <time>2013-06-15T15:26:48.213Z</time>
      </trkpt>
      <trkpt lat="47.36433" lon="6.79896">
        <ele>770.823975</ele>
        <time>2013-06-15T15:26:55.087Z</time>
      </trkpt>
      <trkpt lat="47.36433" lon="6.79868">
        <ele>771.225037</ele>
        <time>2013-06-15T15:27:03.092Z</time>
      </trkpt>
      <trkpt lat="47.36434" lon="6.7984">
        <ele>771.689758</ele>
        <time>2013-06-15T15:27:18.096Z</time>
      </trkpt>
      <trkpt lat="47.36434" lon="6.79812">
        <ele>772.072144</ele>
        <time>2013-06-15T15:27:32.087Z</time>
      </trkpt>
      <trkpt lat="47.36435" lon="6.79782">
        <ele>772.202881</ele>
        <time>2013-06-15T15:27:38.101Z</time>
      </trkpt>
      <trkpt lat="47.36434" lon="6.79754">
        <ele>772.148987</ele>
        <time>2013-06-15T15:27:45.087Z</time>
      </trkpt>
      <trkpt lat="47.3645" lon="6.79737">
        <ele>765.75354</ele>
        <time>2013-06-15T15:28:37.079Z</time>
      </trkpt>
      <trkpt lat="47.36468" lon="6.79733">
        <ele>764.542297</ele>
        <time>2013-06-15T15:28:45.079Z</time>
      </trkpt>
      <trkpt lat="47.36488" lon="6.79741">
        <ele>762.55603</ele>
        <time>2013-06-15T15:29:04.116Z</time>
      </trkpt>
      <trkpt lat="47.36508" lon="6.79743">
        <ele>764.629211</ele>
        <time>2013-06-15T15:29:19.080Z</time>
      </trkpt>
      <trkpt lat="47.36523" lon="6.79726">
        <ele>768.80481</ele>
        <time>2013-06-15T15:29:34.092Z</time>
      </trkpt>
      <trkpt lat="47.36538" lon="6.79711">
        <ele>777.065857</ele>
        <time>2013-06-15T15:29:57.079Z</time>
      </trkpt>
      <trkpt lat="47.36556" lon="6.79707">
        <ele>784.248291</ele>
        <time>2013-06-15T15:30:11.093Z</time>
      </trkpt>
      <trkpt lat="47.36576" lon="6.79694">
        <ele>780.635559</ele>
        <time>2013-06-15T15:31:42.082Z</time>
      </trkpt>
      <trkpt lat="47.36591" lon="6.79679">
        <ele>780.538391</ele>
        <time>2013-06-15T15:31:47.079Z</time>
      </trkpt>
      <trkpt lat="47.36605" lon="6.79655">
        <ele>781.050171</ele>
        <time>2013-06-15T15:31:53.106Z</time>
      </trkpt>
      <trkpt lat="47.36618" lon="6.79635">
        <ele>781.572083</ele>
        <time>2013-06-15T15:31:57.101Z</time>
      </trkpt>
      <trkpt lat="47.36629" lon="6.79614">
        <ele>781.941833</ele>
        <time>2013-06-15T15:32:01.088Z</time>
      </trkpt>
      <trkpt lat="47.36642" lon="6.7959">
        <ele>781.883179</ele>
        <time>2013-06-15T15:32:05.082Z</time>
      </trkpt>
      <trkpt lat="47.36654" lon="6.79566">
        <ele>782.023804</ele>
        <time>2013-06-15T15:32:09.087Z</time>
      </trkpt>
      <trkpt lat="47.36666" lon="6.79537">
        <ele>782.246643</ele>
        <time>2013-06-15T15:32:13.087Z</time>
      </trkpt>
      <trkpt lat="47.36673" lon="6.79507">
        <ele>782.259705</ele>
        <time>2013-06-15T15:32:17.091Z</time>
      </trkpt>
      <trkpt lat="47.3668" lon="6.79481">
        <ele>782.230225</ele>
        <time>2013-06-15T15:32:20.091Z</time>
      </trkpt>
      <trkpt lat="47.36686" lon="6.79455">
        <ele>782.497192</ele>
        <time>2013-06-15T15:32:23.092Z</time>
      </trkpt>
      <trkpt lat="47.36692" lon="6.79429">
        <ele>782.608887</ele>
        <time>2013-06-15T15:32:26.086Z</time>
      </trkpt>
      <trkpt lat="47.36696" lon="6.79398">
        <ele>782.546509</ele>
        <time>2013-06-15T15:32:29.317Z</time>
      </trkpt>
      <trkpt lat="47.36698" lon="6.79369">
        <ele>782.52594</ele>
        <time>2013-06-15T15:32:32.091Z</time>
      </trkpt>
      <trkpt lat="47.36701" lon="6.79341">
        <ele>782.324341</ele>
        <time>2013-06-15T15:32:35.090Z</time>
      </trkpt>
      <trkpt lat="47.36705" lon="6.79314">
        <ele>781.542542</ele>
        <time>2013-06-15T15:32:38.086Z</time>
      </trkpt>
      <trkpt lat="47.36708" lon="6.79284">
        <ele>780.154297</ele>
        <time>2013-06-15T15:32:41.091Z</time>
      </trkpt>
      <trkpt lat="47.36715" lon="6.79254">
        <ele>778.685181</ele>
        <time>2013-06-15T15:32:44.117Z</time>
      </trkpt>
      <trkpt lat="47.36717" lon="6.79223">
        <ele>777.266113</ele>
        <time>2013-06-15T15:32:47.090Z</time>
      </trkpt>
      <trkpt lat="47.36726" lon="6.79194">
        <ele>775.731812</ele>
        <time>2013-06-15T15:32:50.098Z</time>
      </trkpt>
      <trkpt lat="47.36733" lon="6.79159">
        <ele>774.305359</ele>
        <time>2013-06-15T15:32:53.090Z</time>
      </trkpt>
      <trkpt lat="47.36739" lon="6.79133">
        <ele>773.560974</ele>
        <time>2013-06-15T15:32:55.092Z</time>
      </trkpt>
      <trkpt lat="47.36746" lon="6.79108">
        <ele>772.827515</ele>
        <time>2013-06-15T15:32:57.094Z</time>
      </trkpt>
      <trkpt lat="47.36753" lon="6.79083">
        <ele>772.158325</ele>
        <time>2013-06-15T15:32:59.147Z</time>
      </trkpt>
      <trkpt lat="47.36765" lon="6.79042">
        <ele>771.337402</ele>
        <time>2013-06-15T15:33:02.091Z</time>
      </trkpt>
      <trkpt lat="47.36777" lon="6.79003">
        <ele>770.503845</ele>
        <time>2013-06-15T15:33:05.214Z</time>
      </trkpt>
      <trkpt lat="47.36784" lon="6.78975">
        <ele>769.937683</ele>
        <time>2013-06-15T15:33:07.087Z</time>
      </trkpt>
      <trkpt lat="47.36794" lon="6.78937">
        <ele>768.551758</ele>
        <time>2013-06-15T15:33:10.092Z</time>
      </trkpt>
      <trkpt lat="47.36805" lon="6.78903">
        <ele>767.176453</ele>
        <time>2013-06-15T15:33:13.091Z</time>
      </trkpt>
      <trkpt lat="47.36818" lon="6.78866">
        <ele>765.792725</ele>
        <time>2013-06-15T15:33:16.091Z</time>
      </trkpt>
      <trkpt lat="47.36826" lon="6.78842">
        <ele>764.906494</ele>
        <time>2013-06-15T15:33:18.096Z</time>
      </trkpt>
      <trkpt lat="47.36834" lon="6.78806">
        <ele>763.56665</ele>
        <time>2013-06-15T15:33:21.090Z</time>
      </trkpt>
      <trkpt lat="47.3684" lon="6.78773">
        <ele>762.159424</ele>
        <time>2013-06-15T15:33:24.087Z</time>
      </trkpt>
      <trkpt lat="47.36842" lon="6.78746">
        <ele>761.256592</ele>
        <time>2013-06-15T15:33:26.092Z</time>
      </trkpt>
      <trkpt lat="47.36844" lon="6.78718">
        <ele>760.304138</ele>
        <time>2013-06-15T15:33:28.184Z</time>
      </trkpt>
      <trkpt lat="47.3685" lon="6.78674">
        <ele>758.732117</ele>
        <time>2013-06-15T15:33:31.132Z</time>
      </trkpt>
      <trkpt lat="47.36854" lon="6.78647">
        <ele>757.604431</ele>
        <time>2013-06-15T15:33:33.092Z</time>
      </trkpt>
      <trkpt lat="47.36862" lon="6.78609">
        <ele>755.68396</ele>
        <time>2013-06-15T15:33:36.092Z</time>
      </trkpt>
      <trkpt lat="47.36871" lon="6.78576">
        <ele>753.88324</ele>
        <time>2013-06-15T15:33:39.449Z</time>
      </trkpt>
      <trkpt lat="47.36876" lon="6.78539">
        <ele>752.22876</ele>
        <time>2013-06-15T15:33:42.090Z</time>
      </trkpt>
      <trkpt lat="47.36877" lon="6.78509">
        <ele>750.290894</ele>
        <time>2013-06-15T15:33:45.093Z</time>
      </trkpt>
      <trkpt lat="47.36882" lon="6.78483">
        <ele>743.983276</ele>
        <time>2013-06-15T15:33:53.092Z</time>
      </trkpt>
      <trkpt lat="47.36876" lon="6.78458">
        <ele>723.072876</ele>
        <time>2013-06-15T15:34:22.091Z</time>
      </trkpt>
      <trkpt lat="47.36881" lon="6.78432">
        <ele>715.310913</ele>
        <time>2013-06-15T15:35:23.080Z</time>
      </trkpt>
      <trkpt lat="47.36895" lon="6.7841">
        <ele>714.065552</ele>
        <time>2013-06-15T15:35:38.112Z</time>
      </trkpt>
      <trkpt lat="47.36907" lon="6.78389">
        <ele>711.899353</ele>
        <time>2013-06-15T15:35:50.085Z</time>
      </trkpt>
      <trkpt lat="47.36917" lon="6.78367">
        <ele>709.838135</ele>
        <time>2013-06-15T15:35:59.084Z</time>
      </trkpt>
      <trkpt lat="47.36922" lon="6.7834">
        <ele>707.473022</ele>
        <time>2013-06-15T15:36:08.090Z</time>
      </trkpt>
      <trkpt lat="47.36926" lon="6.78314">
        <ele>701.120117</ele>
        <time>2013-06-15T15:36:31.083Z</time>
      </trkpt>
      <trkpt lat="47.3694" lon="6.78296">
        <ele>698.946411</ele>
        <time>2013-06-15T15:36:40.093Z</time>
      </trkpt>
      <trkpt lat="47.36946" lon="6.7827">
        <ele>696.862976</ele>
        <time>2013-06-15T15:36:49.099Z</time>
      </trkpt>
      <trkpt lat="47.36949" lon="6.78241">
        <ele>695.152588</ele>
        <time>2013-06-15T15:37:00.093Z</time>
      </trkpt>
      <trkpt lat="47.36958" lon="6.78216">
        <ele>693.363342</ele>
        <time>2013-06-15T15:37:10.188Z</time>
      </trkpt>
      <trkpt lat="47.36969" lon="6.78194">
        <ele>691.698853</ele>
        <time>2013-06-15T15:37:18.237Z</time>
      </trkpt>
      <trkpt lat="47.36981" lon="6.78171">
        <ele>690.132874</ele>
        <time>2013-06-15T15:37:24.236Z</time>
      </trkpt>
      <trkpt lat="47.36995" lon="6.78149">
        <ele>687.926086</ele>
        <time>2013-06-15T15:37:32.286Z</time>
      </trkpt>
      <trkpt lat="47.37004" lon="6.78122">
        <ele>685.89502</ele>
        <time>2013-06-15T15:37:39.093Z</time>
      </trkpt>
      <trkpt lat="47.3701" lon="6.78096">
        <ele>683.967896</ele>
        <time>2013-06-15T15:37:46.089Z</time>
      </trkpt>
      <trkpt lat="47.37023" lon="6.78073">
        <ele>681.450439</ele>
        <time>2013-06-15T15:37:54.087Z</time>
      </trkpt>
      <trkpt lat="47.37026" lon="6.78045">
        <ele>678.045105</ele>
        <time>2013-06-15T15:38:04.087Z</time>
      </trkpt>
      <trkpt lat="47.37031" lon="6.78018">
        <ele>675.037476</ele>
        <time>2013-06-15T15:38:14.107Z</time>
      </trkpt>
      <trkpt lat="47.37032" lon="6.77991">
        <ele>673.250671</ele>
        <time>2013-06-15T15:38:22.106Z</time>
      </trkpt>
      <trkpt lat="47.37034" lon="6.77959">
        <ele>672.252014</ele>
        <time>2013-06-15T15:38:28.090Z</time>
      </trkpt>
      <trkpt lat="47.37042" lon="6.77934">
        <ele>670.868408</ele>
        <time>2013-06-15T15:38:36.091Z</time>
      </trkpt>
      <trkpt lat="47.37045" lon="6.77907">
        <ele>667.331055</ele>
        <time>2013-06-15T15:38:57.094Z</time>
      </trkpt>
      <trkpt lat="47.37046" lon="6.77879">
        <ele>666.466797</ele>
        <time>2013-06-15T15:39:05.099Z</time>
      </trkpt>
      <trkpt lat="47.37053" lon="6.77853">
        <ele>665.715088</ele>
        <time>2013-06-15T15:39:11.087Z</time>
      </trkpt>
      <trkpt lat="47.37057" lon="6.77825">
        <ele>660.485718</ele>
        <time>2013-06-15T15:40:21.115Z</time>
      </trkpt>
      <trkpt lat="47.37065" lon="6.77799">
        <ele>660.084839</ele>
        <time>2013-06-15T15:40:35.090Z</time>
      </trkpt>
      <trkpt lat="47.37072" lon="6.77774">
        <ele>659.674316</ele>
        <time>2013-06-15T15:41:00.092Z</time>
      </trkpt>
      <trkpt lat="47.37082" lon="6.77747">
        <ele>658.438721</ele>
        <time>2013-06-15T15:41:10.136Z</time>
      </trkpt>
      <trkpt lat="47.37098" lon="6.77731">
        <ele>657.258423</ele>
        <time>2013-06-15T15:41:16.093Z</time>
      </trkpt>
      <trkpt lat="47.37117" lon="6.77734">
        <ele>655.822571</ele>
        <time>2013-06-15T15:41:23.091Z</time>
      </trkpt>
      <trkpt lat="47.37135" lon="6.77731">
        <ele>654.274536</ele>
        <time>2013-06-15T15:41:29.092Z</time>
      </trkpt>
      <trkpt lat="47.37154" lon="6.77733">
        <ele>652.578247</ele>
        <time>2013-06-15T15:41:35.099Z</time>
      </trkpt>
      <trkpt lat="47.37172" lon="6.77729">
        <ele>650.489136</ele>
        <time>2013-06-15T15:41:41.091Z</time>
      </trkpt>
      <trkpt lat="47.37192" lon="6.77736">
        <ele>647.871155</ele>
        <time>2013-06-15T15:41:48.091Z</time>
      </trkpt>
      <trkpt lat="47.3721" lon="6.77746">
        <ele>645.388306</ele>
        <time>2013-06-15T15:41:54.092Z</time>
      </trkpt>
      <trkpt lat="47.37222" lon="6.7777">
        <ele>642.38446</ele>
        <time>2013-06-15T15:42:01.092Z</time>
      </trkpt>
      <trkpt lat="47.37238" lon="6.77788">
        <ele>639.600037</ele>
        <time>2013-06-15T15:42:07.101Z</time>
      </trkpt>
      <trkpt lat="47.37257" lon="6.77794">
        <ele>637.313843</ele>
        <time>2013-06-15T15:42:12.094Z</time>
      </trkpt>
      <trkpt lat="47.37276" lon="6.77801">
        <ele>635.179565</ele>
        <time>2013-06-15T15:42:17.091Z</time>
      </trkpt>
      <trkpt lat="47.37296" lon="6.77806">
        <ele>633.441833</ele>
        <time>2013-06-15T15:42:21.093Z</time>
      </trkpt>
      <trkpt lat="47.3731" lon="6.7783">
        <ele>630.960205</ele>
        <time>2013-06-15T15:42:26.093Z</time>
      </trkpt>
      <trkpt lat="47.37318" lon="6.77862">
        <ele>628.908569</ele>
        <time>2013-06-15T15:42:30.093Z</time>
      </trkpt>
      <trkpt lat="47.37316" lon="6.77889">
        <ele>627.496765</ele>
        <time>2013-06-15T15:42:33.098Z</time>
      </trkpt>
      <trkpt lat="47.37316" lon="6.77918">
        <ele>625.790466</ele>
        <time>2013-06-15T15:42:37.100Z</time>
      </trkpt>
      <trkpt lat="47.37325" lon="6.77949">
        <ele>624.295105</ele>
        <time>2013-06-15T15:42:41.091Z</time>
      </trkpt>
      <trkpt lat="47.37332" lon="6.77985">
        <ele>623.199158</ele>
        <time>2013-06-15T15:42:44.098Z</time>
      </trkpt>
      <trkpt lat="47.37339" lon="6.78021">
        <ele>622.256348</ele>
        <time>2013-06-15T15:42:47.093Z</time>
      </trkpt>
      <trkpt lat="47.37344" lon="6.78057">
        <ele>621.2323</ele>
        <time>2013-06-15T15:42:50.094Z</time>
      </trkpt>
      <trkpt lat="47.3735" lon="6.78088">
        <ele>620.200928</ele>
        <time>2013-06-15T15:42:53.097Z</time>
      </trkpt>
      <trkpt lat="47.37363" lon="6.78112">
        <ele>619.127319</ele>
        <time>2013-06-15T15:42:56.094Z</time>
      </trkpt>
      <trkpt lat="47.37381" lon="6.78128">
        <ele>617.233521</ele>
        <time>2013-06-15T15:43:01.090Z</time>
      </trkpt>
      <trkpt lat="47.37401" lon="6.78129">
        <ele>615.264893</ele>
        <time>2013-06-15T15:43:06.103Z</time>
      </trkpt>
    </trkseg>
  </trk>
</gpx>